Wetterdaten: Sonntag, 05.07.2015
Datum Zeit Temp. Aussen +5cm Feuchte Auss BlattFeu 1 Luftdruck Regen Sonnenschein Regendauer Solar Windben
05.07.2015 00:00 25,4 C 23,3 C 60 % 0 lf 1019,1 hPa 0,0 l/m 0 min 0 min 0 W/m 12,6 km/h (3 Bft)
05.07.2015 00:02 25,4 C 22,8 C 60 % 0 lf 1019,0 hPa 0,0 l/m 0 min 0 min 0 W/m 8,4 km/h (2 Bft)
05.07.2015 00:05 25,4 C 23,3 C 60 % 0 lf 1019,0 hPa 0,0 l/m 0 min 0 min 0 W/m 10,5 km/h (2 Bft)
05.07.2015 00:06 25,3 C 23,3 C 60 % 0 lf 1019,1 hPa 0,0 l/m 0 min 0 min 0 W/m 12,6 km/h (3 Bft)
05.07.2015 00:08 25,3 C 23,3 C 60 % 0 lf 1019,1 hPa 0,0 l/m 0 min 0 min 0 W/m 8,4 km/h (2 Bft)
05.07.2015 00:10 25,3 C 23,3 C 61 % 0 lf 1019,1 hPa 0,0 l/m 0 min 0 min 0 W/m 8,4 km/h (2 Bft)
05.07.2015 00:12 25,3 C 22,8 C 61 % 0 lf 1019,1 hPa 0,0 l/m 0 min 0 min 0 W/m 6,3 km/h (2 Bft)
05.07.2015 00:14 25,2 C 22,8 C 61 % 0 lf 1019,1 hPa 0,0 l/m 0 min 0 min 0 W/m 8,4 km/h (2 Bft)
05.07.2015 00:16 25,2 C 22,8 C 61 % 0 lf 1019,2 hPa 0,0 l/m 0 min 0 min 0 W/m 6,3 km/h (2 Bft)
05.07.2015 00:18 25,2 C 22,8 C 62 % 0 lf 1019,2 hPa 0,0 l/m 0 min 0 min 0 W/m 8,4 km/h (2 Bft)
05.07.2015 00:20 25,1 C 22,2 C 62 % 0 lf 1019,3 hPa 0,0 l/m 0 min 0 min 0 W/m 10,5 km/h (2 Bft)
05.07.2015 00:22 25,1 C 22,2 C 62 % 0 lf 1019,3 hPa 0,0 l/m 0 min 0 min 0 W/m 8,4 km/h (2 Bft)
05.07.2015 00:24 25,1 C 22,2 C 62 % 0 lf 1019,3 hPa 0,0 l/m 0 min 0 min 0 W/m 8,4 km/h (2 Bft)
05.07.2015 00:26 25,1 C 22,2 C 62 % 0 lf 1019,3 hPa 0,0 l/m 0 min 0 min 0 W/m 8,4 km/h (2 Bft)
05.07.2015 00:28 25,1 C 22,2 C 62 % 0 lf 1019,2 hPa 0,0 l/m 0 min 0 min 0 W/m 8,4 km/h (2 Bft)
05.07.2015 00:30 25,1 C 22,2 C 62 % 0 lf 1019,2 hPa 0,0 l/m 0 min 0 min 0 W/m 8,4 km/h (2 Bft)
05.07.2015 00:32 25,0 C 22,2 C 62 % 0 lf 1019,3 hPa 0,0 l/m 0 min 0 min 0 W/m 8,4 km/h (2 Bft)
05.07.2015 00:34 25,0 C 22,2 C 62 % 0 lf 1019,2 hPa 0,0 l/m 0 min 0 min 0 W/m 12,6 km/h (3 Bft)
05.07.2015 00:36 24,9 C 22,2 C 62 % 0 lf 1019,2 hPa 0,0 l/m 0 min 0 min 0 W/m 8,4 km/h (2 Bft)
05.07.2015 00:38 24,9 C 22,2 C 62 % 0 lf 1019,2 hPa 0,0 l/m 0 min 0 min 0 W/m 8,4 km/h (2 Bft)
05.07.2015 00:40 24,9 C 21,7 C 62 % 0 lf 1019,2 hPa 0,0 l/m 0 min 0 min 0 W/m 10,5 km/h (2 Bft)
05.07.2015 00:42 24,8 C 21,7 C 62 % 0 lf 1019,2 hPa 0,0 l/m 0 min 0 min 0 W/m 10,5 km/h (2 Bft)
05.07.2015 00:44 24,8 C 21,7 C 63 % 0 lf 1019,2 hPa 0,0 l/m 0 min 0 min 0 W/m 10,5 km/h (2 Bft)
05.07.2015 00:46 24,7 C 21,7 C 63 % 0 lf 1019,3 hPa 0,0 l/m 0 min 0 min 0 W/m 10,5 km/h (2 Bft)
05.07.2015 00:48 24,7 C 21,7 C 63 % 0 lf 1019,3 hPa 0,0 l/m 0 min 0 min 0 W/m 8,4 km/h (2 Bft)
05.07.2015 00:50 24,6 C 21,7 C 63 % 0 lf 1019,3 hPa 0,0 l/m 0 min 0 min 0 W/m 8,4 km/h (2 Bft)
05.07.2015 00:52 24,5 C 21,7 C 63 % 0 lf 1019,3 hPa 0,0 l/m 0 min 0 min 0 W/m 14,6 km/h (3 Bft)
05.07.2015 00:54 24,4 C 21,7 C 63 % 0 lf 1019,4 hPa 0,0 l/m 0 min 0 min 0 W/m 16,7 km/h (3 Bft)
05.07.2015 00:56 24,4 C 21,7 C 63 % 0 lf 1019,4 hPa 0,0 l/m 0 min 0 min 0 W/m 14,6 km/h (3 Bft)
05.07.2015 00:58 24,3 C 21,7 C 64 % 0 lf 1019,5 hPa 0,0 l/m 0 min 0 min 0 W/m 10,5 km/h (2 Bft)
05.07.2015 01:00 24,2 C 21,1 C 64 % 0 lf 1019,4 hPa 0,0 l/m 0 min 0 min 0 W/m 10,5 km/h (2 Bft)
05.07.2015 01:02 24,2 C 21,1 C 64 % 0 lf 1019,4 hPa 0,0 l/m 0 min 0 min 0 W/m 10,5 km/h (2 Bft)
05.07.2015 01:04 24,1 C 21,1 C 64 % 0 lf 1019,4 hPa 0,0 l/m 0 min 0 min 0 W/m 12,6 km/h (3 Bft)
05.07.2015 01:06 24,1 C 21,1 C 64 % 0 lf 1019,4 hPa 0,0 l/m 0 min 0 min 0 W/m 14,6 km/h (3 Bft)
05.07.2015 01:08 24,0 C 21,1 C 65 % 0 lf 1019,4 hPa 0,0 l/m 0 min 0 min 0 W/m 10,5 km/h (2 Bft)
05.07.2015 01:10 23,9 C 21,1 C 65 % 0 lf 1019,3 hPa 0,0 l/m 0 min 0 min 0 W/m 12,6 km/h (3 Bft)
05.07.2015 01:12 23,9 C 21,1 C 65 % 0 lf 1019,5 hPa 0,0 l/m 0 min 0 min 0 W/m 8,4 km/h (2 Bft)
05.07.2015 01:14 23,8 C 21,1 C 65 % 0 lf 1019,4 hPa 0,0 l/m 0 min 0 min 0 W/m 10,5 km/h (2 Bft)
05.07.2015 01:16 23,8 C 21,1 C 65 % 0 lf 1019,4 hPa 0,0 l/m 0 min 0 min 0 W/m 10,5 km/h (2 Bft)
05.07.2015 01:18 23,8 C 21,1 C 66 % 0 lf 1019,4 hPa 0,0 l/m 0 min 0 min 0 W/m 8,4 km/h (2 Bft)
05.07.2015 01:20 23,7 C 21,1 C 66 % 0 lf 1019,4 hPa 0,0 l/m 0 min 0 min 0 W/m 12,6 km/h (3 Bft)
05.07.2015 01:22 23,7 C 20,6 C 66 % 0 lf 1019,4 hPa 0,0 l/m 0 min 0 min 0 W/m 8,4 km/h (2 Bft)
05.07.2015 01:24 23,6 C 20,6 C 66 % 0 lf 1019,4 hPa 0,0 l/m 0 min 0 min 0 W/m 10,5 km/h (2 Bft)
05.07.2015 01:26 23,6 C 20,6 C 66 % 0 lf 1019,3 hPa 0,0 l/m 0 min 0 min 0 W/m 12,6 km/h (3 Bft)
05.07.2015 01:28 23,5 C 20,6 C 66 % 0 lf 1019,4 hPa 0,0 l/m 0 min 0 min 0 W/m 8,4 km/h (2 Bft)
05.07.2015 01:30 23,5 C 20,6 C 66 % 0 lf 1019,3 hPa 0,0 l/m 0 min 0 min 0 W/m 10,5 km/h (2 Bft)
05.07.2015 01:32 23,4 C 20,6 C 66 % 0 lf 1019,4 hPa 0,0 l/m 0 min 0 min 0 W/m 8,4 km/h (2 Bft)
05.07.2015 01:34 23,4 C 20,6 C 67 % 0 lf 1019,4 hPa 0,0 l/m 0 min 0 min 0 W/m 12,6 km/h (3 Bft)
05.07.2015 01:36 23,3 C 20,6 C 67 % 0 lf 1019,4 hPa 0,0 l/m 0 min 0 min 0 W/m 12,6 km/h (3 Bft)
05.07.2015 01:38 23,3 C 20,6 C 68 % 0 lf 1019,4 hPa 0,0 l/m 0 min 0 min 0 W/m 14,6 km/h (3 Bft)
05.07.2015 01:40 23,2 C 20,6 C 68 % 0 lf 1019,5 hPa 0,0 l/m 0 min 0 min 0 W/m 18,8 km/h (3 Bft)
05.07.2015 01:42 23,2 C 20,6 C 69 % 0 lf 1019,4 hPa 0,0 l/m 0 min 0 min 0 W/m 12,6 km/h (3 Bft)
05.07.2015 01:44 23,1 C 20,6 C 69 % 0 lf 1019,5 hPa 0,0 l/m 0 min 0 min 0 W/m 10,5 km/h (2 Bft)
05.07.2015 01:46 23,1 C 20,6 C 69 % 0 lf 1019,5 hPa 0,0 l/m 0 min 0 min 0 W/m 10,5 km/h (2 Bft)
05.07.2015 01:48 23,1 C 20,6 C 70 % 0 lf 1019,5 hPa 0,0 l/m 0 min 0 min 0 W/m 10,5 km/h (2 Bft)
05.07.2015 01:50 23,1 C 20,6 C 70 % 0 lf 1019,5 hPa 0,0 l/m 0 min 0 min 0 W/m 8,4 km/h (2 Bft)
05.07.2015 01:52 23,0 C 20,6 C 70 % 0 lf 1019,5 hPa 0,0 l/m 0 min 0 min 0 W/m 10,5 km/h (2 Bft)
05.07.2015 01:54 22,9 C 20,6 C 70 % 0 lf 1019,5 hPa 0,0 l/m 0 min 0 min 0 W/m 14,6 km/h (3 Bft)
05.07.2015 01:56 22,9 C 20,6 C 71 % 0 lf 1019,5 hPa 0,0 l/m 0 min 0 min 0 W/m 12,6 km/h (3 Bft)
05.07.2015 01:58 22,9 C 20,6 C 71 % 0 lf 1019,5 hPa 0,0 l/m 0 min 0 min 0 W/m 12,6 km/h (3 Bft)
05.07.2015 02:00 22,8 C 20,6 C 71 % 0 lf 1019,5 hPa 0,0 l/m 0 min 0 min 0 W/m 8,4 km/h (2 Bft)
05.07.2015 02:02 22,8 C 20,6 C 72 % 0 lf 1019,4 hPa 0,0 l/m 0 min 0 min 0 W/m 12,6 km/h (3 Bft)
05.07.2015 02:04 22,7 C 20,6 C 72 % 0 lf 1019,4 hPa 0,0 l/m 0 min 0 min 0 W/m 12,6 km/h (3 Bft)
05.07.2015 02:06 22,7 C 20,6 C 72 % 0 lf 1019,4 hPa 0,0 l/m 0 min 0 min 0 W/m 10,5 km/h (2 Bft)
05.07.2015 02:08 22,7 C 20,6 C 73 % 0 lf 1019,4 hPa 0,0 l/m 0 min 0 min 0 W/m 12,6 km/h (3 Bft)
05.07.2015 02:10 22,7 C 20,6 C 73 % 0 lf 1019,4 hPa 0,0 l/m 0 min 0 min 0 W/m 8,4 km/h (2 Bft)
05.07.2015 02:12 22,6 C 20,6 C 73 % 0 lf 1019,5 hPa 0,0 l/m 0 min 0 min 0 W/m 10,5 km/h (2 Bft)
05.07.2015 02:14 22,6 C 20,6 C 74 % 0 lf 1019,4 hPa 0,0 l/m 0 min 0 min 0 W/m 12,6 km/h (3 Bft)
05.07.2015 02:16 22,6 C 20,6 C 74 % 0 lf 1019,5 hPa 0,0 l/m 0 min 0 min 0 W/m 6,3 km/h (2 Bft)
05.07.2015 02:18 22,5 C 20,6 C 74 % 0 lf 1019,6 hPa 0,0 l/m 0 min 0 min 0 W/m 6,3 km/h (2 Bft)
05.07.2015 02:20 22,5 C 20,6 C 74 % 0 lf 1019,6 hPa 0,0 l/m 0 min 0 min 0 W/m 6,3 km/h (2 Bft)
05.07.2015 02:22 22,4 C 20,0 C 74 % 0 lf 1019,6 hPa 0,0 l/m 0 min 0 min 0 W/m 10,5 km/h (2 Bft)
05.07.2015 02:24 22,4 C 20,0 C 75 % 0 lf 1019,6 hPa 0,0 l/m 0 min 0 min 0 W/m 10,5 km/h (2 Bft)
05.07.2015 02:26 22,4 C 20,0 C 75 % 0 lf 1019,6 hPa 0,0 l/m 0 min 0 min 0 W/m 10,5 km/h (2 Bft)
05.07.2015 02:28 22,3 C 20,0 C 75 % 0 lf 1019,5 hPa 0,0 l/m 0 min 0 min 0 W/m 8,4 km/h (2 Bft)
05.07.2015 02:30 22,3 C 20,0 C 75 % 0 lf 1019,5 hPa 0,0 l/m 0 min 0 min 0 W/m 6,3 km/h (2 Bft)
05.07.2015 02:32 22,3 C 20,0 C 75 % 0 lf 1019,5 hPa 0,0 l/m 0 min 0 min 0 W/m 8,4 km/h (2 Bft)
05.07.2015 02:34 22,2 C 20,0 C 76 % 0 lf 1019,4 hPa 0,0 l/m 0 min 0 min 0 W/m 8,4 km/h (2 Bft)
05.07.2015 02:36 22,2 C 20,0 C 76 % 0 lf 1019,4 hPa 0,0 l/m 0 min 0 min 0 W/m 8,4 km/h (2 Bft)
05.07.2015 02:38 22,2 C 20,0 C 76 % 0 lf 1019,4 hPa 0,0 l/m 0 min 0 min 0 W/m 6,3 km/h (2 Bft)
05.07.2015 02:40 22,1 C 20,0 C 76 % 0 lf 1019,4 hPa 0,0 l/m 0 min 0 min 0 W/m 8,4 km/h (2 Bft)
05.07.2015 02:42 22,1 C 20,0 C 76 % 0 lf 1019,4 hPa 0,0 l/m 0 min 0 min 0 W/m 6,3 km/h (2 Bft)
05.07.2015 02:44 22,1 C 20,0 C 76 % 0 lf 1019,4 hPa 0,0 l/m 0 min 0 min 0 W/m 6,3 km/h (2 Bft)
05.07.2015 02:46 22,1 C 20,0 C 76 % 0 lf 1019,4 hPa 0,0 l/m 0 min 0 min 0 W/m 6,3 km/h (2 Bft)
05.07.2015 02:48 22,0 C 20,0 C 76 % 0 lf 1019,4 hPa 0,0 l/m 0 min 0 min 0 W/m 8,4 km/h (2 Bft)
05.07.2015 02:50 22,0 C 20,0 C 76 % 0 lf 1019,5 hPa 0,0 l/m 0 min 0 min 0 W/m 8,4 km/h (2 Bft)
05.07.2015 02:52 21,9 C 20,0 C 76 % 0 lf 1019,5 hPa 0,0 l/m 0 min 0 min 0 W/m 6,3 km/h (2 Bft)
05.07.2015 02:54 21,9 C 20,0 C 76 % 0 lf 1019,4 hPa 0,0 l/m 0 min 0 min 0 W/m 6,3 km/h (2 Bft)
05.07.2015 02:56 21,9 C 20,0 C 77 % 0 lf 1019,4 hPa 0,0 l/m 0 min 0 min 0 W/m 8,4 km/h (2 Bft)
05.07.2015 02:58 21,9 C 20,0 C 77 % 0 lf 1019,4 hPa 0,0 l/m 0 min 0 min 0 W/m 6,3 km/h (2 Bft)
05.07.2015 03:00 21,8 C 20,0 C 77 % 0 lf 1019,4 hPa 0,0 l/m 0 min 0 min 0 W/m 6,3 km/h (2 Bft)
05.07.2015 03:02 21,8 C 20,0 C 77 % 0 lf 1019,4 hPa 0,0 l/m 0 min 0 min 0 W/m 8,4 km/h (2 Bft)
05.07.2015 03:04 21,8 C 20,0 C 77 % 0 lf 1019,5 hPa 0,0 l/m 0 min 0 min 0 W/m 6,3 km/h (2 Bft)
05.07.2015 03:06 21,8 C 20,0 C 77 % 0 lf 1019,5 hPa 0,0 l/m 0 min 0 min 0 W/m 8,4 km/h (2 Bft)
05.07.2015 03:08 21,7 C 20,0 C 77 % 0 lf 1019,5 hPa 0,0 l/m 0 min 0 min 0 W/m 8,4 km/h (2 Bft)
05.07.2015 03:10 21,7 C 20,0 C 78 % 0 lf 1019,5 hPa 0,0 l/m 0 min 0 min 0 W/m 8,4 km/h (2 Bft)
05.07.2015 03:12 21,7 C 20,0 C 78 % 0 lf 1019,5 hPa 0,0 l/m 0 min 0 min 0 W/m 6,3 km/h (2 Bft)
05.07.2015 03:14 21,7 C 20,0 C 78 % 0 lf 1019,4 hPa 0,0 l/m 0 min 0 min 0 W/m 8,4 km/h (2 Bft)
05.07.2015 03:16 21,6 C 20,0 C 78 % 0 lf 1019,3 hPa 0,0 l/m 0 min 0 min 0 W/m 10,5 km/h (2 Bft)
05.07.2015 03:18 21,6 C 20,0 C 78 % 0 lf 1019,3 hPa 0,0 l/m 0 min 0 min 0 W/m 10,5 km/h (2 Bft)
05.07.2015 03:20 21,6 C 20,0 C 78 % 0 lf 1019,3 hPa 0,0 l/m 0 min 0 min 0 W/m 6,3 km/h (2 Bft)
05.07.2015 03:22 21,6 C 20,0 C 78 % 0 lf 1019,3 hPa 0,0 l/m 0 min 0 min 0 W/m 6,3 km/h (2 Bft)
05.07.2015 03:24 21,5 C 20,0 C 78 % 0 lf 1019,3 hPa 0,0 l/m 0 min 0 min 0 W/m 8,4 km/h (2 Bft)
05.07.2015 03:26 21,5 C 20,0 C 78 % 0 lf 1019,3 hPa 0,0 l/m 0 min 0 min 0 W/m 12,6 km/h (3 Bft)
05.07.2015 03:28 21,4 C 20,0 C 78 % 0 lf 1019,3 hPa 0,0 l/m 0 min 0 min 0 W/m 12,6 km/h (3 Bft)
05.07.2015 03:30 21,4 C 20,0 C 78 % 0 lf 1019,3 hPa 0,0 l/m 0 min 0 min 0 W/m 10,5 km/h (2 Bft)
05.07.2015 03:32 21,4 C 20,0 C 78 % 0 lf 1019,3 hPa 0,0 l/m 0 min 0 min 0 W/m 8,4 km/h (2 Bft)
05.07.2015 03:34 21,4 C 20,0 C 78 % 0 lf 1019,3 hPa 0,0 l/m 0 min 2 min 0 W/m 8,4 km/h (2 Bft)
05.07.2015 03:36 21,4 C 20,0 C 78 % 0 lf 1019,3 hPa 0,0 l/m 0 min 0 min 0 W/m 10,5 km/h (2 Bft)
05.07.2015 03:38 21,4 C 20,0 C 78 % 0 lf 1019,3 hPa 0,0 l/m 0 min 0 min 0 W/m 6,3 km/h (2 Bft)
05.07.2015 03:40 21,4 C 20,0 C 79 % 0 lf 1019,3 hPa 0,0 l/m 0 min 0 min 0 W/m 6,3 km/h (2 Bft)
05.07.2015 03:42 21,3 C 20,0 C 79 % 0 lf 1019,4 hPa 0,0 l/m 0 min 0 min 0 W/m 8,4 km/h (2 Bft)
05.07.2015 03:44 21,3 C 20,0 C 79 % 0 lf 1019,3 hPa 0,0 l/m 0 min 0 min 0 W/m 8,4 km/h (2 Bft)
05.07.2015 03:46 21,3 C 20,0 C 79 % 0 lf 1019,3 hPa 0,0 l/m 0 min 0 min 0 W/m 6,3 km/h (2 Bft)
05.07.2015 03:48 21,3 C 20,0 C 79 % 1 lf 1019,1 hPa 0,0 l/m 0 min 0 min 0 W/m 6,3 km/h (2 Bft)
05.07.2015 03:50 21,3 C 20,0 C 78 % 0 lf 1019,0 hPa 0,0 l/m 0 min 2 min 0 W/m 8,4 km/h (2 Bft)
05.07.2015 03:52 21,3 C 19,4 C 78 % 15 lf 1018,9 hPa 0,0 l/m 0 min 2 min 0 W/m 10,5 km/h (2 Bft)
05.07.2015 03:54 21,3 C 19,4 C 79 % 15 lf 1018,8 hPa 0,0 l/m 0 min 2 min 0 W/m 12,6 km/h (3 Bft)
05.07.2015 03:56 21,3 C 17,8 C 79 % 15 lf 1018,6 hPa 0,0 l/m 0 min 2 min 0 W/m 16,7 km/h (3 Bft)
05.07.2015 03:58 21,2 C 17,2 C 80 % 15 lf 1018,4 hPa 0,4 l/m 0 min 2 min 0 W/m 16,7 km/h (3 Bft)
05.07.2015 04:00 21,2 C 17,2 C 81 % 15 lf 1018,5 hPa 0,2 l/m 0 min 2 min 0 W/m 10,5 km/h (2 Bft)
05.07.2015 04:02 21,2 C 17,2 C 81 % 15 lf 1018,7 hPa 0,0 l/m 0 min 2 min 0 W/m 8,4 km/h (2 Bft)
05.07.2015 04:04 21,1 C 17,2 C 82 % 15 lf 1018,9 hPa 0,0 l/m 0 min 2 min 0 W/m 6,3 km/h (2 Bft)
05.07.2015 04:06 21,1 C 17,2 C 82 % 15 lf 1019,0 hPa 0,0 l/m 0 min 0 min 0 W/m 8,4 km/h (2 Bft)
05.07.2015 04:08 21,1 C 17,2 C 82 % 15 lf 1018,9 hPa 0,0 l/m 0 min 0 min 0 W/m 10,5 km/h (2 Bft)
05.07.2015 04:10 21,0 C 17,2 C 82 % 15 lf 1019,0 hPa 0,0 l/m 0 min 0 min 0 W/m 8,4 km/h (2 Bft)
05.07.2015 04:12 21,0 C 17,2 C 82 % 15 lf 1018,8 hPa 0,0 l/m 0 min 0 min 0 W/m 6,3 km/h (2 Bft)
05.07.2015 04:14 20,9 C 17,2 C 82 % 15 lf 1018,9 hPa 0,0 l/m 0 min 0 min 0 W/m 4,2 km/h (1 Bft)
05.07.2015 04:16 20,9 C 17,2 C 82 % 15 lf 1018,9 hPa 0,0 l/m 0 min 0 min 0 W/m 6,3 km/h (2 Bft)
05.07.2015 04:18 20,8 C 17,2 C 82 % 15 lf 1018,8 hPa 0,0 l/m 0 min 0 min 0 W/m 4,2 km/h (1 Bft)
05.07.2015 04:20 20,7 C 17,2 C 82 % 15 lf 1018,8 hPa 0,0 l/m 0 min 0 min 0 W/m 4,2 km/h (1 Bft)
05.07.2015 04:22 20,7 C 16,7 C 83 % 15 lf 1018,7 hPa 0,0 l/m 0 min 0 min 0 W/m 4,2 km/h (1 Bft)
05.07.2015 04:24 20,6 C 17,2 C 83 % 15 lf 1018,8 hPa 0,0 l/m 0 min 0 min 0 W/m 6,3 km/h (2 Bft)
05.07.2015 04:26 20,6 C 16,7 C 83 % 15 lf 1018,7 hPa 0,0 l/m 0 min 0 min 0 W/m 6,3 km/h (2 Bft)
05.07.2015 04:28 20,5 C 17,2 C 83 % 15 lf 1018,8 hPa 0,0 l/m 0 min 0 min 0 W/m 4,2 km/h (1 Bft)
05.07.2015 04:30 20,4 C 17,2 C 83 % 15 lf 1018,8 hPa 0,0 l/m 0 min 0 min 0 W/m 2,1 km/h (1 Bft)
05.07.2015 04:32 20,4 C 16,7 C 83 % 15 lf 1018,8 hPa 0,0 l/m 0 min 0 min 0 W/m 4,2 km/h (1 Bft)
05.07.2015 04:34 20,3 C 16,7 C 83 % 15 lf 1018,7 hPa 0,0 l/m 0 min 0 min 0 W/m 6,3 km/h (2 Bft)
05.07.2015 04:36 20,3 C 16,7 C 84 % 15 lf 1018,6 hPa 0,0 l/m 0 min 0 min 0 W/m 6,3 km/h (2 Bft)
05.07.2015 04:38 20,2 C 16,7 C 84 % 15 lf 1018,6 hPa 0,0 l/m 0 min 0 min 0 W/m 8,4 km/h (2 Bft)
05.07.2015 04:40 20,2 C 16,7 C 84 % 15 lf 1018,6 hPa 0,0 l/m 0 min 0 min 0 W/m 6,3 km/h (2 Bft)
05.07.2015 04:42 20,1 C 16,7 C 84 % 15 lf 1018,6 hPa 0,0 l/m 0 min 0 min 0 W/m 4,2 km/h (1 Bft)
05.07.2015 04:44 20,1 C 16,7 C 84 % 15 lf 1018,6 hPa 0,0 l/m 0 min 0 min 0 W/m 4,2 km/h (1 Bft)
05.07.2015 04:46 20,1 C 16,7 C 85 % 15 lf 1018,6 hPa 0,0 l/m 0 min 0 min 0 W/m 6,3 km/h (2 Bft)
05.07.2015 04:48 20,0 C 16,7 C 85 % 15 lf 1018,5 hPa 0,0 l/m 0 min 0 min 0 W/m 4,2 km/h (1 Bft)
05.07.2015 04:50 19,9 C 16,7 C 85 % 15 lf 1018,4 hPa 0,0 l/m 0 min 0 min 0 W/m 4,2 km/h (1 Bft)
05.07.2015 04:52 19,9 C 16,7 C 85 % 15 lf 1018,5 hPa 0,0 l/m 0 min 0 min 0 W/m 8,4 km/h (2 Bft)
05.07.2015 04:54 19,9 C 16,7 C 85 % 15 lf 1018,5 hPa 0,0 l/m 0 min 0 min 0 W/m 6,3 km/h (2 Bft)
05.07.2015 04:56 19,8 C 16,7 C 85 % 15 lf 1018,6 hPa 0,0 l/m 0 min 0 min 0 W/m 4,2 km/h (1 Bft)
05.07.2015 04:58 19,8 C 16,7 C 85 % 15 lf 1018,6 hPa 0,0 l/m 0 min 0 min 0 W/m 6,3 km/h (2 Bft)
05.07.2015 05:00 19,7 C 16,7 C 85 % 15 lf 1018,6 hPa 0,0 l/m 0 min 0 min 0 W/m 6,3 km/h (2 Bft)
05.07.2015 05:02 19,7 C 16,7 C 85 % 15 lf 1018,7 hPa 0,0 l/m 0 min 0 min 0 W/m 6,3 km/h (2 Bft)
05.07.2015 05:04 19,7 C 16,7 C 85 % 15 lf 1018,7 hPa 0,0 l/m 0 min 0 min 0 W/m 4,2 km/h (1 Bft)
05.07.2015 05:06 19,6 C 16,7 C 85 % 15 lf 1018,8 hPa 0,0 l/m 0 min 0 min 0 W/m 4,2 km/h (1 Bft)
05.07.2015 05:08 19,6 C 16,7 C 85 % 15 lf 1018,8 hPa 0,0 l/m 0 min 0 min 0 W/m 6,3 km/h (2 Bft)
05.07.2015 05:10 19,6 C 16,7 C 86 % 15 lf 1018,8 hPa 0,0 l/m 0 min 0 min 0 W/m 6,3 km/h (2 Bft)
05.07.2015 05:12 19,5 C 17,2 C 86 % 15 lf 1018,9 hPa 0,0 l/m 0 min 0 min 0 W/m 6,3 km/h (2 Bft)
05.07.2015 05:14 19,5 C 17,2 C 87 % 15 lf 1018,8 hPa 0,0 l/m 0 min 0 min 0 W/m 4,2 km/h (1 Bft)
05.07.2015 05:16 19,5 C 17,2 C 87 % 15 lf 1018,8 hPa 0,0 l/m 0 min 0 min 0 W/m 6,3 km/h (2 Bft)
05.07.2015 05:18 19,5 C 17,2 C 87 % 15 lf 1018,7 hPa 0,0 l/m 0 min 0 min 0 W/m 4,2 km/h (1 Bft)
05.07.2015 05:20 19,4 C 17,2 C 87 % 15 lf 1018,7 hPa 0,0 l/m 0 min 0 min 0 W/m 4,2 km/h (1 Bft)
05.07.2015 05:22 19,4 C 17,2 C 87 % 15 lf 1018,7 hPa 0,0 l/m 0 min 0 min 0 W/m 4,2 km/h (1 Bft)
05.07.2015 05:24 19,4 C 17,2 C 87 % 15 lf 1018,7 hPa 0,0 l/m 0 min 0 min 0 W/m 4,2 km/h (1 Bft)
05.07.2015 05:26 19,4 C 17,2 C 87 % 15 lf 1018,7 hPa 0,0 l/m 0 min 0 min 0 W/m 2,1 km/h (1 Bft)
05.07.2015 05:28 19,4 C 17,2 C 87 % 15 lf 1018,8 hPa 0,0 l/m 0 min 0 min 0 W/m 2,1 km/h (1 Bft)
05.07.2015 05:30 19,3 C 17,2 C 88 % 15 lf 1018,8 hPa 0,0 l/m 0 min 0 min 0 W/m 4,2 km/h (1 Bft)
05.07.2015 05:32 19,3 C 17,2 C 88 % 15 lf 1018,8 hPa 0,0 l/m 0 min 0 min 0 W/m 4,2 km/h (1 Bft)
05.07.2015 05:34 19,3 C 17,2 C 88 % 15 lf 1018,9 hPa 0,0 l/m 0 min 0 min 0 W/m 6,3 km/h (2 Bft)
05.07.2015 05:36 19,3 C 17,2 C 88 % 15 lf 1019,0 hPa 0,0 l/m 0 min 0 min 3 W/m 4,2 km/h (1 Bft)
05.07.2015 05:38 19,3 C 17,2 C 88 % 15 lf 1018,9 hPa 0,0 l/m 0 min 0 min 5 W/m 4,2 km/h (1 Bft)
05.07.2015 05:40 19,3 C 17,2 C 88 % 15 lf 1018,7 hPa 0,0 l/m 0 min 0 min 5 W/m 4,2 km/h (1 Bft)
05.07.2015 05:42 19,3 C 16,7 C 88 % 15 lf 1018,6 hPa 0,0 l/m 0 min 0 min 5 W/m 4,2 km/h (1 Bft)
05.07.2015 05:44 19,3 C 17,2 C 88 % 15 lf 1018,6 hPa 0,0 l/m 0 min 0 min 5 W/m 4,2 km/h (1 Bft)
05.07.2015 05:46 19,3 C 17,2 C 89 % 15 lf 1018,8 hPa 0,0 l/m 0 min 0 min 5 W/m 6,3 km/h (2 Bft)
05.07.2015 05:48 19,3 C 17,2 C 89 % 15 lf 1018,8 hPa 0,0 l/m 0 min 0 min 5 W/m 8,4 km/h (2 Bft)
05.07.2015 05:50 19,3 C 17,2 C 89 % 15 lf 1018,9 hPa 0,0 l/m 0 min 0 min 5 W/m 6,3 km/h (2 Bft)
05.07.2015 05:52 19,3 C 17,2 C 89 % 15 lf 1019,1 hPa 0,0 l/m 0 min 0 min 5 W/m 10,5 km/h (2 Bft)
05.07.2015 05:54 19,3 C 17,2 C 89 % 15 lf 1019,1 hPa 0,0 l/m 0 min 0 min 5 W/m 8,4 km/h (2 Bft)
05.07.2015 05:56 19,3 C 17,2 C 90 % 15 lf 1018,9 hPa 0,0 l/m 0 min 2 min 5 W/m 4,2 km/h (1 Bft)
05.07.2015 05:58 19,2 C 17,2 C 90 % 15 lf 1018,7 hPa 0,0 l/m 0 min 2 min 5 W/m 8,4 km/h (2 Bft)
05.07.2015 06:00 19,2 C 16,7 C 90 % 15 lf 1018,2 hPa 0,0 l/m 0 min 2 min 6 W/m 12,6 km/h (3 Bft)
05.07.2015 06:02 19,2 C 16,7 C 89 % 15 lf 1017,9 hPa 0,0 l/m 0 min 2 min 5 W/m 16,7 km/h (3 Bft)
05.07.2015 06:05 19,2 C 16,7 C 90 % 15 lf 1017,7 hPa 0,2 l/m 0 min 2 min 7 W/m 18,8 km/h (3 Bft)
05.07.2015 06:06 19,2 C 16,7 C 90 % 15 lf 1017,7 hPa 0,2 l/m 0 min 1 min 6 W/m 18,8 km/h (3 Bft)
05.07.2015 06:08 19,2 C 16,7 C 90 % 15 lf 1017,8 hPa 0,0 l/m 0 min 2 min 7 W/m 6,3 km/h (2 Bft)
05.07.2015 06:10 19,2 C 16,7 C 90 % 15 lf 1017,9 hPa 0,0 l/m 0 min 2 min 7 W/m 6,3 km/h (2 Bft)
05.07.2015 06:12 19,2 C 16,7 C 90 % 15 lf 1018,0 hPa 0,0 l/m 0 min 2 min 7 W/m 10,5 km/h (2 Bft)
05.07.2015 06:14 19,2 C 16,7 C 90 % 15 lf 1018,0 hPa 0,0 l/m 0 min 2 min 8 W/m 6,3 km/h (2 Bft)
05.07.2015 06:16 19,2 C 17,2 C 90 % 15 lf 1018,1 hPa 0,0 l/m 0 min 2 min 9 W/m 6,3 km/h (2 Bft)
05.07.2015 06:18 19,2 C 17,2 C 90 % 15 lf 1018,1 hPa 0,0 l/m 0 min 0 min 9 W/m 4,2 km/h (1 Bft)
05.07.2015 06:20 19,2 C 16,7 C 90 % 15 lf 1018,1 hPa 0,0 l/m 0 min 0 min 11 W/m 4,2 km/h (1 Bft)
05.07.2015 06:22 19,2 C 16,7 C 90 % 15 lf 1018,0 hPa 0,0 l/m 0 min 0 min 11 W/m 6,3 km/h (2 Bft)
05.07.2015 06:24 19,1 C 17,2 C 90 % 15 lf 1018,0 hPa 0,0 l/m 0 min 0 min 12 W/m 6,3 km/h (2 Bft)
05.07.2015 06:26 19,1 C 17,2 C 90 % 15 lf 1018,1 hPa 0,0 l/m 0 min 0 min 16 W/m 8,4 km/h (2 Bft)
05.07.2015 06:28 19,1 C 17,2 C 90 % 15 lf 1018,0 hPa 0,0 l/m 0 min 0 min 20 W/m 6,3 km/h (2 Bft)
05.07.2015 06:30 19,1 C 17,2 C 90 % 15 lf 1018,0 hPa 0,0 l/m 0 min 0 min 24 W/m 6,3 km/h (2 Bft)
05.07.2015 06:32 19,1 C 16,7 C 90 % 15 lf 1017,9 hPa 0,0 l/m 0 min 0 min 24 W/m 4,2 km/h (1 Bft)
05.07.2015 06:34 19,1 C 16,7 C 90 % 15 lf 1017,8 hPa 0,0 l/m 0 min 0 min 23 W/m 6,3 km/h (2 Bft)
05.07.2015 06:36 19,1 C 17,2 C 90 % 15 lf 1017,7 hPa 0,0 l/m 0 min 0 min 26 W/m 6,3 km/h (2 Bft)
05.07.2015 06:38 19,1 C 17,2 C 90 % 15 lf 1017,7 hPa 0,0 l/m 0 min 0 min 30 W/m 6,3 km/h (2 Bft)
05.07.2015 06:40 19,1 C 16,7 C 90 % 15 lf 1017,6 hPa 0,0 l/m 0 min 0 min 33 W/m 14,6 km/h (3 Bft)
05.07.2015 06:42 19,1 C 16,7 C 90 % 15 lf 1017,7 hPa 0,0 l/m 0 min 0 min 36 W/m 14,6 km/h (3 Bft)
05.07.2015 06:44 19,1 C 16,7 C 90 % 15 lf 1017,6 hPa 0,0 l/m 0 min 0 min 35 W/m 10,5 km/h (2 Bft)
05.07.2015 06:46 19,0 C 16,7 C 90 % 15 lf 1017,6 hPa 0,0 l/m 0 min 0 min 33 W/m 12,6 km/h (3 Bft)
05.07.2015 06:48 18,9 C 16,7 C 90 % 15 lf 1017,6 hPa 0,0 l/m 0 min 0 min 33 W/m 10,5 km/h (2 Bft)
05.07.2015 06:50 18,9 C 16,7 C 90 % 15 lf 1017,6 hPa 0,0 l/m 0 min 0 min 33 W/m 10,5 km/h (2 Bft)
05.07.2015 06:52 18,9 C 16,7 C 90 % 15 lf 1017,6 hPa 0,0 l/m 0 min 0 min 40 W/m 8,4 km/h (2 Bft)
05.07.2015 06:54 18,9 C 16,7 C 90 % 15 lf 1017,6 hPa 0,0 l/m 0 min 0 min 49 W/m 8,4 km/h (2 Bft)
05.07.2015 06:56 18,9 C 16,7 C 90 % 15 lf 1017,7 hPa 0,0 l/m 0 min 0 min 58 W/m 6,3 km/h (2 Bft)
05.07.2015 06:58 18,9 C 16,7 C 90 % 15 lf 1017,7 hPa 0,0 l/m 0 min 0 min 62 W/m 6,3 km/h (2 Bft)
05.07.2015 07:00 18,9 C 16,7 C 90 % 15 lf 1017,7 hPa 0,0 l/m 0 min 0 min 59 W/m 6,3 km/h (2 Bft)
05.07.2015 07:02 18,8 C 16,7 C 89 % 15 lf 1017,6 hPa 0,0 l/m 0 min 0 min 60 W/m 4,2 km/h (1 Bft)
05.07.2015 07:04 18,8 C 16,7 C 89 % 15 lf 1017,6 hPa 0,0 l/m 0 min 0 min 61 W/m 4,2 km/h (1 Bft)
05.07.2015 07:06 18,8 C 16,7 C 89 % 15 lf 1017,6 hPa 0,0 l/m 0 min 0 min 65 W/m 2,1 km/h (1 Bft)
05.07.2015 07:08 18,8 C 16,7 C 89 % 15 lf 1017,5 hPa 0,0 l/m 0 min 0 min 75 W/m 2,1 km/h (1 Bft)
05.07.2015 07:10 18,8 C 16,7 C 89 % 15 lf 1017,5 hPa 0,0 l/m 0 min 0 min 87 W/m 6,3 km/h (2 Bft)
05.07.2015 07:12 18,9 C 16,7 C 89 % 15 lf 1017,5 hPa 0,0 l/m 0 min 0 min 97 W/m 6,3 km/h (2 Bft)
05.07.2015 07:14 18,9 C 16,7 C 89 % 15 lf 1017,5 hPa 0,0 l/m 2 min 0 min 141 W/m 10,5 km/h (2 Bft)
05.07.2015 07:16 19,0 C 16,7 C 88 % 15 lf 1017,5 hPa 0,0 l/m 0 min 0 min 116 W/m 6,3 km/h (2 Bft)
05.07.2015 07:18 19,1 C 16,7 C 89 % 15 lf 1017,6 hPa 0,0 l/m 2 min 0 min 123 W/m 6,3 km/h (2 Bft)
05.07.2015 07:20 19,1 C 16,7 C 88 % 15 lf 1017,6 hPa 0,0 l/m 2 min 0 min 176 W/m 6,3 km/h (2 Bft)
05.07.2015 07:22 19,2 C 17,2 C 88 % 14 lf 1017,5 hPa 0,0 l/m 2 min 0 min 213 W/m 6,3 km/h (2 Bft)
05.07.2015 07:24 19,3 C 17,2 C 88 % 9 lf 1017,5 hPa 0,0 l/m 2 min 0 min 184 W/m 8,4 km/h (2 Bft)
05.07.2015 07:26 19,4 C 17,2 C 88 % 3 lf 1017,5 hPa 0,0 l/m 2 min 0 min 215 W/m 6,3 km/h (2 Bft)
05.07.2015 07:28 19,6 C 17,2 C 88 % 2 lf 1017,4 hPa 0,0 l/m 2 min 0 min 202 W/m 10,5 km/h (2 Bft)
05.07.2015 07:30 19,7 C 17,8 C 89 % 1 lf 1017,4 hPa 0,0 l/m 2 min 0 min 171 W/m 6,3 km/h (2 Bft)
05.07.2015 07:32 19,7 C 17,2 C 88 % 1 lf 1017,3 hPa 0,0 l/m 2 min 0 min 138 W/m 8,4 km/h (2 Bft)
05.07.2015 07:34 19,7 C 17,8 C 88 % 0 lf 1017,2 hPa 0,0 l/m 0 min 0 min 129 W/m 10,5 km/h (2 Bft)
05.07.2015 07:36 19,8 C 17,8 C 88 % 0 lf 1017,2 hPa 0,0 l/m 0 min 0 min 121 W/m 12,6 km/h (3 Bft)
05.07.2015 07:38 19,8 C 17,2 C 87 % 0 lf 1017,1 hPa 0,0 l/m 0 min 0 min 108 W/m 12,6 km/h (3 Bft)
05.07.2015 07:40 19,9 C 17,2 C 87 % 0 lf 1016,9 hPa 0,0 l/m 0 min 0 min 98 W/m 10,5 km/h (2 Bft)
05.07.2015 07:42 19,9 C 17,2 C 87 % 0 lf 1016,9 hPa 0,0 l/m 0 min 0 min 97 W/m 12,6 km/h (3 Bft)
05.07.2015 07:44 20,0 C 17,8 C 87 % 0 lf 1017,0 hPa 0,0 l/m 0 min 0 min 103 W/m 10,5 km/h (2 Bft)
05.07.2015 07:46 20,0 C 17,8 C 86 % 0 lf 1017,0 hPa 0,0 l/m 0 min 0 min 115 W/m 6,3 km/h (2 Bft)
05.07.2015 07:48 20,1 C 17,8 C 87 % 0 lf 1017,1 hPa 0,0 l/m 0 min 0 min 127 W/m 4,2 km/h (1 Bft)
05.07.2015 07:50 20,2 C 17,8 C 87 % 0 lf 1017,2 hPa 0,0 l/m 0 min 0 min 127 W/m 4,2 km/h (1 Bft)
05.07.2015 07:52 20,2 C 18,3 C 88 % 0 lf 1017,4 hPa 0,0 l/m 0 min 0 min 124 W/m 8,4 km/h (2 Bft)
05.07.2015 07:54 20,2 C 18,3 C 88 % 0 lf 1017,4 hPa 0,0 l/m 0 min 0 min 127 W/m 6,3 km/h (2 Bft)
05.07.2015 07:56 20,3 C 18,3 C 88 % 0 lf 1017,4 hPa 0,0 l/m 0 min 0 min 128 W/m 6,3 km/h (2 Bft)
05.07.2015 07:58 20,3 C 18,3 C 88 % 0 lf 1017,5 hPa 0,0 l/m 0 min 0 min 116 W/m 8,4 km/h (2 Bft)
05.07.2015 08:00 20,3 C 18,3 C 88 % 0 lf 1017,6 hPa 0,0 l/m 0 min 0 min 95 W/m 6,3 km/h (2 Bft)
05.07.2015 08:02 20,3 C 18,3 C 88 % 0 lf 1017,7 hPa 0,0 l/m 0 min 0 min 70 W/m 14,6 km/h (3 Bft)
05.07.2015 08:04 20,3 C 17,8 C 88 % 0 lf 1017,9 hPa 0,0 l/m 0 min 0 min 48 W/m 14,6 km/h (3 Bft)
05.07.2015 08:06 20,3 C 17,8 C 88 % 0 lf 1018,0 hPa 0,0 l/m 0 min 0 min 35 W/m 16,7 km/h (3 Bft)
05.07.2015 08:08 20,3 C 17,8 C 89 % 0 lf 1018,0 hPa 0,0 l/m 0 min 0 min 26 W/m 20,9 km/h (4 Bft)
05.07.2015 08:10 20,3 C 17,8 C 89 % 0 lf 1018,0 hPa 0,0 l/m 0 min 0 min 19 W/m 10,5 km/h (2 Bft)
05.07.2015 08:12 20,3 C 17,8 C 88 % 15 lf 1018,1 hPa 0,0 l/m 0 min 0 min 15 W/m 12,6 km/h (3 Bft)
05.07.2015 08:14 20,3 C 17,8 C 88 % 15 lf 1018,1 hPa 0,2 l/m 0 min 2 min 13 W/m 8,4 km/h (2 Bft)
05.07.2015 08:16 20,3 C 17,2 C 88 % 15 lf 1018,2 hPa 1,0 l/m 0 min 2 min 11 W/m 10,5 km/h (2 Bft)
05.07.2015 08:18 20,3 C 17,2 C 89 % 15 lf 1018,0 hPa 0,8 l/m 0 min 2 min 11 W/m 12,6 km/h (3 Bft)
05.07.2015 08:20 20,2 C 17,2 C 89 % 15 lf 1018,0 hPa 0,6 l/m 0 min 2 min 11 W/m 27,2 km/h (4 Bft)
05.07.2015 08:22 20,2 C 17,8 C 89 % 15 lf 1017,3 hPa 1,6 l/m 0 min 2 min 11 W/m 56,5 km/h (7 Bft)
05.07.2015 08:24 20,4 C 18,9 C 91 % 15 lf 1017,3 hPa 2,6 l/m 0 min 2 min 11 W/m 50,2 km/h (7 Bft)
05.07.2015 08:26 20,6 C 18,3 C 92 % 15 lf 1017,0 hPa 1,6 l/m 0 min 2 min 12 W/m 31,4 km/h (5 Bft)
05.07.2015 08:28 20,6 C 18,3 C 92 % 15 lf 1016,8 hPa 0,2 l/m 0 min 2 min 15 W/m 25,1 km/h (4 Bft)
05.07.2015 08:30 20,6 C 18,3 C 93 % 15 lf 1016,7 hPa 0,0 l/m 0 min 2 min 16 W/m 31,4 km/h (5 Bft)
05.07.2015 08:32 20,6 C 18,3 C 93 % 15 lf 1016,5 hPa 0,0 l/m 0 min 2 min 16 W/m 23,0 km/h (4 Bft)
05.07.2015 08:34 20,5 C 18,3 C 93 % 15 lf 1016,5 hPa 0,0 l/m 0 min 0 min 16 W/m 18,8 km/h (3 Bft)
05.07.2015 08:36 20,4 C 17,8 C 93 % 15 lf 1016,4 hPa 0,0 l/m 0 min 2 min 18 W/m 16,7 km/h (3 Bft)
05.07.2015 08:38 20,3 C 17,8 C 93 % 15 lf 1016,5 hPa 0,0 l/m 0 min 2 min 19 W/m 23,0 km/h (4 Bft)
05.07.2015 08:40 20,2 C 17,8 C 93 % 15 lf 1016,4 hPa 0,0 l/m 0 min 2 min 21 W/m 33,5 km/h (5 Bft)
05.07.2015 08:42 20,2 C 17,8 C 93 % 15 lf 1016,2 hPa 0,0 l/m 0 min 2 min 26 W/m 23,0 km/h (4 Bft)
05.07.2015 08:44 20,1 C 18,3 C 93 % 15 lf 1016,0 hPa 0,0 l/m 0 min 2 min 33 W/m 14,6 km/h (3 Bft)
05.07.2015 08:46 20,1 C 17,8 C 93 % 15 lf 1015,9 hPa 0,0 l/m 0 min 2 min 43 W/m 16,7 km/h (3 Bft)
05.07.2015 08:48 20,1 C 18,3 C 93 % 15 lf 1015,8 hPa 0,0 l/m 0 min 2 min 48 W/m 18,8 km/h (3 Bft)
05.07.2015 08:50 20,0 C 18,3 C 94 % 15 lf 1015,8 hPa 0,0 l/m 0 min 2 min 57 W/m 12,6 km/h (3 Bft)
05.07.2015 08:52 20,0 C 18,3 C 94 % 15 lf 1015,8 hPa 0,2 l/m 0 min 2 min 72 W/m 16,7 km/h (3 Bft)
05.07.2015 08:54 20,1 C 18,3 C 94 % 15 lf 1016,1 hPa 0,0 l/m 0 min 2 min 88 W/m 8,4 km/h (2 Bft)
05.07.2015 08:56 20,1 C 18,3 C 94 % 15 lf 1016,2 hPa 0,0 l/m 0 min 2 min 105 W/m 4,2 km/h (1 Bft)
05.07.2015 08:58 20,2 C 18,9 C 95 % 15 lf 1016,4 hPa 0,0 l/m 0 min 0 min 131 W/m 6,3 km/h (2 Bft)
05.07.2015 09:00 20,2 C 18,9 C 95 % 15 lf 1016,5 hPa 0,0 l/m 0 min 0 min 171 W/m 4,2 km/h (1 Bft)
05.07.2015 09:02 20,2 C 18,9 C 95 % 15 lf 1016,6 hPa 0,0 l/m 0 min 0 min 242 W/m 6,3 km/h (2 Bft)
05.07.2015 09:04 20,1 C 18,9 C 95 % 15 lf 1016,6 hPa 0,0 l/m 2 min 0 min 463 W/m 6,3 km/h (2 Bft)
05.07.2015 09:06 20,2 C 18,9 C 96 % 15 lf 1016,5 hPa 0,0 l/m 2 min 0 min 463 W/m 6,3 km/h (2 Bft)
05.07.2015 09:08 20,3 C 18,9 C 95 % 15 lf 1016,6 hPa 0,0 l/m 2 min 0 min 469 W/m 8,4 km/h (2 Bft)
05.07.2015 09:10 20,6 C 19,4 C 96 % 15 lf 1016,5 hPa 0,0 l/m 2 min 0 min 508 W/m 12,6 km/h (3 Bft)
05.07.2015 09:12 20,7 C 19,4 C 96 % 15 lf 1016,4 hPa 0,0 l/m 2 min 0 min 515 W/m 10,5 km/h (2 Bft)
05.07.2015 09:14 20,6 C 18,9 C 96 % 15 lf 1016,3 hPa 0,0 l/m 2 min 0 min 537 W/m 14,6 km/h (3 Bft)
05.07.2015 09:16 20,7 C 19,4 C 96 % 15 lf 1016,2 hPa 0,0 l/m 2 min 0 min 557 W/m 10,5 km/h (2 Bft)
05.07.2015 09:18 20,7 C 18,9 C 95 % 15 lf 1016,2 hPa 0,0 l/m 2 min 0 min 564 W/m 16,7 km/h (3 Bft)
05.07.2015 09:20 21,0 C 19,4 C 95 % 15 lf 1016,4 hPa 0,0 l/m 2 min 0 min 564 W/m 8,4 km/h (2 Bft)
05.07.2015 09:22 21,0 C 19,4 C 95 % 15 lf 1016,5 hPa 0,0 l/m 2 min 0 min 543 W/m 8,4 km/h (2 Bft)
05.07.2015 09:24 21,2 C 19,4 C 94 % 15 lf 1016,5 hPa 0,0 l/m 2 min 0 min 542 W/m 6,3 km/h (2 Bft)
05.07.2015 09:26 21,3 C 19,4 C 94 % 15 lf 1016,5 hPa 0,0 l/m 2 min 0 min 430 W/m 8,4 km/h (2 Bft)
05.07.2015 09:28 21,3 C 19,4 C 93 % 15 lf 1016,5 hPa 0,0 l/m 0 min 0 min 169 W/m 6,3 km/h (2 Bft)
05.07.2015 09:30 21,2 C 19,4 C 93 % 15 lf 1016,5 hPa 0,0 l/m 0 min 0 min 152 W/m 4,2 km/h (1 Bft)
05.07.2015 09:32 21,2 C 19,4 C 92 % 15 lf 1016,7 hPa 0,0 l/m 0 min 0 min 138 W/m 2,1 km/h (1 Bft)
05.07.2015 09:34 21,2 C 19,4 C 93 % 15 lf 1016,8 hPa 0,0 l/m 0 min 0 min 138 W/m 6,3 km/h (2 Bft)
05.07.2015 09:36 21,1 C 19,4 C 92 % 15 lf 1016,6 hPa 0,0 l/m 0 min 0 min 144 W/m 10,5 km/h (2 Bft)
05.07.2015 09:38 21,1 C 19,4 C 92 % 15 lf 1016,5 hPa 0,0 l/m 0 min 0 min 155 W/m 10,5 km/h (2 Bft)
05.07.2015 09:40 21,1 C 19,4 C 92 % 15 lf 1016,5 hPa 0,0 l/m 0 min 0 min 161 W/m 8,4 km/h (2 Bft)
05.07.2015 09:42 21,2 C 19,4 C 93 % 15 lf 1016,7 hPa 0,0 l/m 0 min 0 min 138 W/m 6,3 km/h (2 Bft)
05.07.2015 09:44 21,1 C 19,4 C 93 % 15 lf 1017,0 hPa 0,0 l/m 0 min 0 min 107 W/m 6,3 km/h (2 Bft)
05.07.2015 09:46 21,2 C 19,4 C 93 % 15 lf 1017,2 hPa 0,0 l/m 0 min 0 min 96 W/m 4,2 km/h (1 Bft)
05.07.2015 09:48 21,1 C 18,9 C 93 % 15 lf 1017,0 hPa 0,0 l/m 0 min 0 min 98 W/m 6,3 km/h (2 Bft)
05.07.2015 09:50 21,0 C 18,9 C 92 % 15 lf 1016,7 hPa 0,0 l/m 0 min 2 min 111 W/m 12,6 km/h (3 Bft)
05.07.2015 09:52 21,0 C 18,9 C 92 % 15 lf 1016,6 hPa 0,0 l/m 0 min 2 min 142 W/m 12,6 km/h (3 Bft)
05.07.2015 09:54 21,0 C 18,9 C 92 % 15 lf 1016,6 hPa 0,0 l/m 0 min 2 min 192 W/m 10,5 km/h (2 Bft)
05.07.2015 09:56 21,2 C 20,0 C 93 % 15 lf 1016,9 hPa 0,0 l/m 0 min 2 min 221 W/m 6,3 km/h (2 Bft)
05.07.2015 09:58 21,3 C 20,6 C 94 % 15 lf 1016,9 hPa 0,0 l/m 2 min 0 min 463 W/m 4,2 km/h (1 Bft)
05.07.2015 10:00 21,5 C 20,6 C 94 % 15 lf 1016,9 hPa 0,0 l/m 2 min 0 min 474 W/m 6,3 km/h (2 Bft)
05.07.2015 10:02 21,8 C 21,1 C 94 % 15 lf 1016,8 hPa 0,0 l/m 2 min 0 min 645 W/m 12,6 km/h (3 Bft)
05.07.2015 10:04 21,8 C 21,1 C 94 % 15 lf 1017,0 hPa 0,0 l/m 2 min 0 min 598 W/m 14,6 km/h (3 Bft)
05.07.2015 10:06 21,8 C 21,1 C 94 % 15 lf 1016,7 hPa 0,0 l/m 2 min 0 min 601 W/m 14,6 km/h (3 Bft)
05.07.2015 10:08 21,9 C 21,7 C 93 % 15 lf 1016,6 hPa 0,0 l/m 2 min 0 min 607 W/m 8,4 km/h (2 Bft)
05.07.2015 10:10 21,9 C 21,7 C 93 % 15 lf 1016,5 hPa 0,0 l/m 2 min 0 min 631 W/m 8,4 km/h (2 Bft)
05.07.2015 10:12 21,8 C 21,1 C 92 % 15 lf 1016,5 hPa 0,0 l/m 2 min 0 min 657 W/m 4,2 km/h (1 Bft)
05.07.2015 10:14 21,9 C 21,1 C 91 % 15 lf 1016,4 hPa 0,0 l/m 2 min 0 min 562 W/m 4,2 km/h (1 Bft)
05.07.2015 10:16 22,1 C 20,6 C 92 % 15 lf 1016,1 hPa 0,0 l/m 2 min 0 min 534 W/m 10,5 km/h (2 Bft)
05.07.2015 10:18 22,1 C 20,6 C 91 % 15 lf 1016,1 hPa 0,0 l/m 2 min 0 min 389 W/m 8,4 km/h (2 Bft)
05.07.2015 10:20 22,0 C 20,6 C 90 % 15 lf 1015,9 hPa 0,0 l/m 2 min 0 min 398 W/m 8,4 km/h (2 Bft)
05.07.2015 10:22 22,2 C 21,1 C 91 % 15 lf 1015,8 hPa 0,0 l/m 2 min 0 min 553 W/m 10,5 km/h (2 Bft)
05.07.2015 10:24 22,4 C 22,2 C 92 % 11 lf 1015,7 hPa 0,0 l/m 2 min 0 min 610 W/m 8,4 km/h (2 Bft)
05.07.2015 10:26 22,7 C 22,8 C 92 % 1 lf 1015,8 hPa 0,0 l/m 2 min 0 min 628 W/m 8,4 km/h (2 Bft)
05.07.2015 10:28 22,7 C 21,7 C 92 % 0 lf 1015,7 hPa 0,0 l/m 2 min 0 min 576 W/m 12,6 km/h (3 Bft)
05.07.2015 10:30 22,7 C 21,1 C 90 % 0 lf 1015,6 hPa 0,0 l/m 2 min 0 min 452 W/m 10,5 km/h (2 Bft)
05.07.2015 10:32 22,6 C 20,0 C 90 % 0 lf 1015,6 hPa 0,0 l/m 0 min 0 min 121 W/m 8,4 km/h (2 Bft)
05.07.2015 10:34 22,5 C 20,0 C 90 % 0 lf 1015,5 hPa 0,0 l/m 0 min 0 min 102 W/m 6,3 km/h (2 Bft)
05.07.2015 10:36 22,3 C 20,0 C 90 % 0 lf 1015,3 hPa 0,0 l/m 0 min 0 min 102 W/m 8,4 km/h (2 Bft)
05.07.2015 10:38 22,2 C 19,4 C 90 % 0 lf 1015,2 hPa 0,0 l/m 0 min 0 min 109 W/m 8,4 km/h (2 Bft)
05.07.2015 10:40 22,1 C 20,0 C 90 % 0 lf 1015,1 hPa 0,0 l/m 0 min 0 min 157 W/m 12,6 km/h (3 Bft)
05.07.2015 10:42 22,0 C 20,6 C 91 % 0 lf 1015,1 hPa 0,0 l/m 0 min 0 min 293 W/m 12,6 km/h (3 Bft)
05.07.2015 10:44 22,2 C 21,7 C 92 % 0 lf 1015,4 hPa 0,0 l/m 2 min 0 min 474 W/m 6,3 km/h (2 Bft)
05.07.2015 10:46 22,3 C 22,2 C 92 % 0 lf 1015,3 hPa 0,0 l/m 2 min 0 min 680 W/m 8,4 km/h (2 Bft)
05.07.2015 10:48 22,4 C 22,8 C 91 % 0 lf 1015,2 hPa 0,0 l/m 2 min 0 min 707 W/m 8,4 km/h (2 Bft)
05.07.2015 10:50 22,6 C 23,3 C 91 % 0 lf 1015,1 hPa 0,0 l/m 2 min 0 min 721 W/m 10,5 km/h (2 Bft)
05.07.2015 10:52 23,0 C 23,3 C 92 % 0 lf 1015,1 hPa 0,0 l/m 2 min 0 min 711 W/m 10,5 km/h (2 Bft)
05.07.2015 10:54 23,1 C 23,3 C 91 % 0 lf 1015,1 hPa 0,0 l/m 2 min 0 min 705 W/m 10,5 km/h (2 Bft)
05.07.2015 10:56 23,1 C 22,8 C 90 % 0 lf 1015,1 hPa 0,0 l/m 0 min 0 min 214 W/m 10,5 km/h (2 Bft)
05.07.2015 10:58 23,0 C 22,2 C 90 % 0 lf 1015,0 hPa 0,0 l/m 0 min 0 min 133 W/m 12,6 km/h (3 Bft)
05.07.2015 11:00 22,8 C 21,7 C 89 % 0 lf 1015,1 hPa 0,0 l/m 0 min 0 min 130 W/m 10,5 km/h (2 Bft)
05.07.2015 11:02 22,7 C 21,7 C 89 % 0 lf 1015,1 hPa 0,0 l/m 0 min 0 min 137 W/m 10,5 km/h (2 Bft)
05.07.2015 11:04 22,6 C 21,7 C 90 % 0 lf 1015,2 hPa 0,0 l/m 0 min 0 min 177 W/m 6,3 km/h (2 Bft)
05.07.2015 11:06 22,5 C 21,7 C 90 % 0 lf 1015,1 hPa 0,0 l/m 0 min 0 min 256 W/m 8,4 km/h (2 Bft)
05.07.2015 11:08 22,5 C 22,8 C 90 % 0 lf 1015,0 hPa 0,0 l/m 2 min 0 min 420 W/m 6,3 km/h (2 Bft)
05.07.2015 11:10 22,6 C 23,9 C 91 % 0 lf 1015,0 hPa 0,0 l/m 2 min 0 min 620 W/m 6,3 km/h (2 Bft)
05.07.2015 11:12 22,8 C 24,4 C 90 % 0 lf 1014,9 hPa 0,0 l/m 2 min 0 min 686 W/m 6,3 km/h (2 Bft)
05.07.2015 11:14 22,9 C 25,0 C 90 % 0 lf 1015,0 hPa 0,0 l/m 2 min 0 min 727 W/m 10,5 km/h (2 Bft)
05.07.2015 11:16 23,2 C 26,1 C 90 % 0 lf 1015,1 hPa 0,0 l/m 2 min 0 min 774 W/m 8,4 km/h (2 Bft)
05.07.2015 11:18 23,4 C 26,7 C 90 % 0 lf 1015,1 hPa 0,0 l/m 2 min 0 min 768 W/m 8,4 km/h (2 Bft)
05.07.2015 11:20 23,6 C 26,7 C 89 % 0 lf 1014,9 hPa 0,0 l/m 2 min 0 min 779 W/m 8,4 km/h (2 Bft)
05.07.2015 11:22 23,8 C 27,2 C 89 % 0 lf 1014,9 hPa 0,0 l/m 2 min 0 min 771 W/m 10,5 km/h (2 Bft)
05.07.2015 11:24 24,0 C 27,2 C 87 % 0 lf 1015,0 hPa 0,0 l/m 2 min 0 min 747 W/m 12,6 km/h (3 Bft)
05.07.2015 11:26 24,1 C 27,2 C 85 % 0 lf 1015,0 hPa 0,0 l/m 2 min 0 min 768 W/m 10,5 km/h (2 Bft)
05.07.2015 11:28 24,1 C 27,8 C 85 % 0 lf 1014,9 hPa 0,0 l/m 2 min 0 min 802 W/m 8,4 km/h (2 Bft)
05.07.2015 11:30 24,1 C 27,2 C 84 % 0 lf 1015,0 hPa 0,0 l/m 2 min 0 min 865 W/m 6,3 km/h (2 Bft)
05.07.2015 11:32 24,1 C 27,2 C 84 % 0 lf 1014,9 hPa 0,0 l/m 2 min 0 min 870 W/m 4,2 km/h (1 Bft)
05.07.2015 11:34 24,3 C 26,7 C 85 % 0 lf 1014,9 hPa 0,0 l/m 2 min 0 min 525 W/m 6,3 km/h (2 Bft)
05.07.2015 11:36 24,5 C 26,1 C 84 % 0 lf 1015,0 hPa 0,0 l/m 0 min 0 min 372 W/m 8,4 km/h (2 Bft)
05.07.2015 11:38 24,6 C 25,6 C 85 % 0 lf 1015,0 hPa 0,0 l/m 0 min 0 min 374 W/m 10,5 km/h (2 Bft)
05.07.2015 11:40 24,8 C 26,1 C 84 % 0 lf 1015,0 hPa 0,0 l/m 2 min 0 min 748 W/m 8,4 km/h (2 Bft)
05.07.2015 11:42 25,1 C 26,7 C 83 % 0 lf 1015,0 hPa 0,0 l/m 2 min 0 min 896 W/m 6,3 km/h (2 Bft)
05.07.2015 11:44 25,3 C 26,7 C 84 % 0 lf 1015,0 hPa 0,0 l/m 2 min 0 min 623 W/m 6,3 km/h (2 Bft)
05.07.2015 11:46 25,2 C 26,1 C 83 % 0 lf 1014,9 hPa 0,0 l/m 2 min 0 min 400 W/m 6,3 km/h (2 Bft)
05.07.2015 11:48 25,0 C 25,6 C 83 % 0 lf 1014,9 hPa 0,0 l/m 2 min 0 min 392 W/m 8,4 km/h (2 Bft)
05.07.2015 11:50 24,8 C 25,6 C 82 % 0 lf 1014,8 hPa 0,0 l/m 2 min 0 min 392 W/m 6,3 km/h (2 Bft)
05.07.2015 11:52 24,8 C 25,6 C 84 % 0 lf 1014,8 hPa 0,0 l/m 0 min 0 min 367 W/m 10,5 km/h (2 Bft)
05.07.2015 11:54 24,8 C 26,1 C 83 % 0 lf 1014,8 hPa 0,0 l/m 0 min 0 min 351 W/m 10,5 km/h (2 Bft)
05.07.2015 11:56 24,9 C 26,7 C 83 % 0 lf 1014,8 hPa 0,0 l/m 2 min 0 min 437 W/m 14,6 km/h (3 Bft)
05.07.2015 11:58 24,9 C 27,2 C 83 % 0 lf 1014,8 hPa 0,0 l/m 2 min 0 min 840 W/m 8,4 km/h (2 Bft)
05.07.2015 12:00 24,9 C 26,1 C 83 % 0 lf 1014,8 hPa 0,0 l/m 2 min 0 min 840 W/m 6,3 km/h (2 Bft)
05.07.2015 12:02 24,9 C 25,6 C 82 % 0 lf 1014,8 hPa 0,0 l/m 0 min 0 min 255 W/m 8,4 km/h (2 Bft)
05.07.2015 12:05 24,8 C 25,6 C 83 % 0 lf 1014,7 hPa 0,0 l/m 0 min 0 min 338 W/m 10,5 km/h (2 Bft)
05.07.2015 12:06 24,7 C 25,0 C 83 % 0 lf 1014,7 hPa 0,0 l/m 0 min 0 min 297 W/m 10,5 km/h (2 Bft)
05.07.2015 12:08 24,5 C 24,4 C 83 % 0 lf 1014,7 hPa 0,0 l/m 0 min 0 min 238 W/m 6,3 km/h (2 Bft)
05.07.2015 12:10 24,6 C 25,6 C 85 % 0 lf 1014,7 hPa 0,0 l/m 0 min 0 min 262 W/m 6,3 km/h (2 Bft)
05.07.2015 12:12 24,8 C 26,7 C 84 % 0 lf 1014,6 hPa 0,0 l/m 2 min 0 min 557 W/m 8,4 km/h (2 Bft)
05.07.2015 12:14 25,1 C 27,2 C 84 % 0 lf 1014,6 hPa 0,0 l/m 2 min 0 min 923 W/m 6,3 km/h (2 Bft)
05.07.2015 12:16 25,4 C 27,8 C 83 % 0 lf 1014,7 hPa 0,0 l/m 2 min 0 min 931 W/m 10,5 km/h (2 Bft)
05.07.2015 12:18 25,3 C 26,7 C 82 % 0 lf 1014,7 hPa 0,0 l/m 0 min 0 min 373 W/m 10,5 km/h (2 Bft)
05.07.2015 12:20 25,1 C 25,6 C 82 % 0 lf 1014,5 hPa 0,0 l/m 0 min 0 min 330 W/m 12,6 km/h (3 Bft)
05.07.2015 12:22 25,1 C 25,6 C 84 % 0 lf 1014,6 hPa 0,0 l/m 0 min 0 min 334 W/m 8,4 km/h (2 Bft)
05.07.2015 12:24 25,1 C 25,6 C 84 % 0 lf 1014,5 hPa 0,0 l/m 2 min 0 min 413 W/m 12,6 km/h (3 Bft)
05.07.2015 12:26 25,1 C 27,2 C 83 % 0 lf 1014,5 hPa 0,0 l/m 2 min 0 min 544 W/m 10,5 km/h (2 Bft)
05.07.2015 12:28 25,4 C 28,3 C 85 % 0 lf 1014,5 hPa 0,0 l/m 2 min 0 min 922 W/m 12,6 km/h (3 Bft)
05.07.2015 12:30 25,6 C 27,2 C 83 % 0 lf 1014,5 hPa 0,0 l/m 2 min 0 min 622 W/m 12,6 km/h (3 Bft)
05.07.2015 12:32 25,4 C 26,1 C 82 % 0 lf 1014,5 hPa 0,0 l/m 0 min 0 min 295 W/m 14,6 km/h (3 Bft)
05.07.2015 12:34 25,4 C 26,7 C 83 % 0 lf 1014,4 hPa 0,0 l/m 2 min 0 min 519 W/m 10,5 km/h (2 Bft)
05.07.2015 12:36 25,8 C 27,8 C 85 % 0 lf 1014,4 hPa 0,0 l/m 2 min 0 min 898 W/m 10,5 km/h (2 Bft)
05.07.2015 12:38 26,2 C 28,3 C 83 % 0 lf 1014,3 hPa 0,0 l/m 2 min 0 min 898 W/m 10,5 km/h (2 Bft)
05.07.2015 12:40 26,2 C 27,8 C 81 % 0 lf 1014,3 hPa 0,0 l/m 2 min 0 min 876 W/m 6,3 km/h (2 Bft)
05.07.2015 12:42 26,4 C 28,3 C 81 % 0 lf 1014,3 hPa 0,0 l/m 2 min 0 min 878 W/m 8,4 km/h (2 Bft)
05.07.2015 12:44 26,7 C 28,9 C 82 % 0 lf 1014,3 hPa 0,0 l/m 2 min 0 min 871 W/m 8,4 km/h (2 Bft)
05.07.2015 12:46 27,0 C 28,9 C 80 % 0 lf 1014,2 hPa 0,0 l/m 2 min 0 min 860 W/m 12,6 km/h (3 Bft)
05.07.2015 12:48 26,9 C 28,9 C 79 % 0 lf 1014,2 hPa 0,0 l/m 2 min 0 min 861 W/m 10,5 km/h (2 Bft)
05.07.2015 12:50 26,8 C 28,3 C 79 % 0 lf 1014,1 hPa 0,0 l/m 2 min 0 min 846 W/m 4,2 km/h (1 Bft)
05.07.2015 12:52 26,9 C 28,3 C 80 % 0 lf 1014,2 hPa 0,0 l/m 2 min 0 min 844 W/m 8,4 km/h (2 Bft)
05.07.2015 12:54 27,0 C 27,8 C 79 % 0 lf 1014,1 hPa 0,0 l/m 2 min 0 min 854 W/m 10,5 km/h (2 Bft)
05.07.2015 12:56 27,1 C 28,3 C 81 % 0 lf 1014,1 hPa 0,0 l/m 2 min 0 min 866 W/m 12,6 km/h (3 Bft)
05.07.2015 12:58 27,2 C 27,8 C 79 % 0 lf 1014,1 hPa 0,0 l/m 2 min 0 min 879 W/m 8,4 km/h (2 Bft)
05.07.2015 13:00 27,3 C 27,8 C 79 % 0 lf 1014,0 hPa 0,0 l/m 2 min 0 min 852 W/m 14,6 km/h (3 Bft)
05.07.2015 13:02 27,3 C 27,8 C 78 % 0 lf 1013,9 hPa 0,0 l/m 2 min 0 min 894 W/m 8,4 km/h (2 Bft)
05.07.2015 13:04 27,4 C 27,8 C 78 % 0 lf 1013,7 hPa 0,0 l/m 2 min 0 min 896 W/m 10,5 km/h (2 Bft)
05.07.2015 13:06 27,6 C 27,8 C 78 % 0 lf 1013,6 hPa 0,0 l/m 2 min 0 min 877 W/m 14,6 km/h (3 Bft)
05.07.2015 13:08 27,7 C 27,8 C 77 % 0 lf 1013,6 hPa 0,0 l/m 2 min 0 min 807 W/m 10,5 km/h (2 Bft)
05.07.2015 13:10 27,6 C 27,8 C 77 % 0 lf 1013,5 hPa 0,0 l/m 2 min 0 min 599 W/m 16,7 km/h (3 Bft)
05.07.2015 13:12 27,5 C 27,8 C 77 % 0 lf 1013,6 hPa 0,0 l/m 0 min 0 min 351 W/m 12,6 km/h (3 Bft)
05.07.2015 13:14 27,5 C 27,8 C 80 % 0 lf 1013,6 hPa 0,0 l/m 2 min 0 min 484 W/m 8,4 km/h (2 Bft)
05.07.2015 13:16 27,6 C 27,8 C 78 % 0 lf 1013,6 hPa 0,0 l/m 2 min 0 min 787 W/m 6,3 km/h (2 Bft)
05.07.2015 13:18 27,6 C 27,8 C 78 % 0 lf 1013,5 hPa 0,0 l/m 0 min 0 min 282 W/m 8,4 km/h (2 Bft)
05.07.2015 13:20 27,6 C 27,8 C 78 % 0 lf 1013,6 hPa 0,0 l/m 0 min 0 min 276 W/m 6,3 km/h (2 Bft)
05.07.2015 13:22 27,7 C 28,3 C 78 % 0 lf 1013,5 hPa 0,0 l/m 2 min 0 min 542 W/m 10,5 km/h (2 Bft)
05.07.2015 13:24 27,8 C 28,3 C 78 % 0 lf 1013,5 hPa 0,0 l/m 2 min 0 min 811 W/m 8,4 km/h (2 Bft)
05.07.2015 13:26 28,3 C 28,9 C 78 % 0 lf 1013,5 hPa 0,0 l/m 2 min 0 min 823 W/m 8,4 km/h (2 Bft)
05.07.2015 13:28 28,4 C 28,3 C 76 % 0 lf 1013,5 hPa 0,0 l/m 2 min 0 min 809 W/m 12,6 km/h (3 Bft)
05.07.2015 13:30 28,5 C 28,3 C 77 % 0 lf 1013,4 hPa 0,0 l/m 2 min 0 min 544 W/m 8,4 km/h (2 Bft)
05.07.2015 13:32 28,6 C 28,3 C 76 % 0 lf 1013,3 hPa 0,0 l/m 0 min 0 min 320 W/m 8,4 km/h (2 Bft)
05.07.2015 13:34 28,6 C 28,3 C 76 % 0 lf 1013,3 hPa 0,0 l/m 0 min 0 min 306 W/m 8,4 km/h (2 Bft)
05.07.2015 13:36 28,8 C 28,3 C 76 % 0 lf 1013,2 hPa 0,0 l/m 2 min 0 min 649 W/m 10,5 km/h (2 Bft)
05.07.2015 13:38 28,9 C 28,3 C 76 % 0 lf 1013,1 hPa 0,0 l/m 2 min 0 min 834 W/m 10,5 km/h (2 Bft)
05.07.2015 13:40 29,1 C 28,9 C 75 % 0 lf 1013,1 hPa 0,0 l/m 2 min 0 min 767 W/m 14,6 km/h (3 Bft)
05.07.2015 13:42 29,2 C 29,4 C 74 % 0 lf 1013,1 hPa 0,0 l/m 2 min 0 min 782 W/m 10,5 km/h (2 Bft)
05.07.2015 13:44 29,3 C 29,4 C 76 % 0 lf 1013,1 hPa 0,0 l/m 2 min 0 min 782 W/m 10,5 km/h (2 Bft)
05.07.2015 13:46 29,6 C 29,4 C 77 % 0 lf 1013,0 hPa 0,0 l/m 2 min 0 min 798 W/m 8,4 km/h (2 Bft)
05.07.2015 13:48 29,8 C 29,4 C 75 % 0 lf 1013,0 hPa 0,0 l/m 2 min 0 min 880 W/m 10,5 km/h (2 Bft)
05.07.2015 13:50 29,9 C 30,0 C 74 % 0 lf 1012,9 hPa 0,0 l/m 2 min 0 min 905 W/m 8,4 km/h (2 Bft)
05.07.2015 13:52 29,8 C 29,4 C 72 % 0 lf 1012,9 hPa 0,0 l/m 2 min 0 min 863 W/m 12,6 km/h (3 Bft)
05.07.2015 13:54 29,7 C 28,9 C 73 % 0 lf 1012,9 hPa 0,0 l/m 0 min 0 min 238 W/m 8,4 km/h (2 Bft)
05.07.2015 13:56 29,5 C 28,3 C 74 % 0 lf 1012,9 hPa 0,0 l/m 0 min 0 min 232 W/m 14,6 km/h (3 Bft)
05.07.2015 13:58 29,3 C 28,3 C 72 % 0 lf 1012,9 hPa 0,0 l/m 0 min 0 min 281 W/m 8,4 km/h (2 Bft)
05.07.2015 14:00 29,2 C 27,8 C 73 % 0 lf 1012,8 hPa 0,0 l/m 0 min 2 min 331 W/m 10,5 km/h (2 Bft)
05.07.2015 14:02 29,0 C 27,2 C 74 % 2 lf 1012,8 hPa 0,0 l/m 0 min 2 min 388 W/m 14,6 km/h (3 Bft)
05.07.2015 14:04 29,1 C 26,7 C 74 % 4 lf 1012,8 hPa 0,0 l/m 2 min 2 min 732 W/m 14,6 km/h (3 Bft)
05.07.2015 14:06 29,3 C 27,2 C 75 % 0 lf 1012,7 hPa 0,0 l/m 2 min 2 min 929 W/m 16,7 km/h (3 Bft)
05.07.2015 14:08 29,6 C 27,8 C 71 % 0 lf 1012,6 hPa 0,0 l/m 2 min 0 min 909 W/m 14,6 km/h (3 Bft)
05.07.2015 14:10 29,7 C 28,9 C 70 % 0 lf 1012,5 hPa 0,0 l/m 2 min 0 min 628 W/m 16,7 km/h (3 Bft)
05.07.2015 14:12 29,7 C 28,9 C 69 % 0 lf 1012,5 hPa 0,0 l/m 2 min 0 min 473 W/m 16,7 km/h (3 Bft)
05.07.2015 14:14 29,7 C 28,9 C 70 % 0 lf 1012,4 hPa 0,0 l/m 2 min 0 min 481 W/m 14,6 km/h (3 Bft)
05.07.2015 14:16 29,8 C 30,0 C 69 % 0 lf 1012,5 hPa 0,0 l/m 2 min 0 min 494 W/m 16,7 km/h (3 Bft)
05.07.2015 14:18 29,9 C 30,0 C 69 % 0 lf 1012,4 hPa 0,0 l/m 2 min 0 min 494 W/m 20,9 km/h (4 Bft)
05.07.2015 14:20 30,2 C 30,0 C 69 % 0 lf 1012,4 hPa 0,0 l/m 2 min 0 min 853 W/m 14,6 km/h (3 Bft)
05.07.2015 14:22 30,4 C 30,0 C 68 % 0 lf 1012,4 hPa 0,0 l/m 2 min 0 min 884 W/m 14,6 km/h (3 Bft)
05.07.2015 14:24 30,5 C 30,0 C 68 % 0 lf 1012,4 hPa 0,0 l/m 2 min 0 min 874 W/m 18,8 km/h (3 Bft)
05.07.2015 14:26 30,7 C 30,0 C 71 % 0 lf 1012,5 hPa 0,0 l/m 2 min 0 min 853 W/m 10,5 km/h (2 Bft)
05.07.2015 14:28 31,1 C 30,0 C 68 % 0 lf 1012,4 hPa 0,0 l/m 2 min 0 min 845 W/m 14,6 km/h (3 Bft)
05.07.2015 14:30 31,0 C 30,0 C 66 % 0 lf 1012,4 hPa 0,0 l/m 2 min 0 min 832 W/m 14,6 km/h (3 Bft)
05.07.2015 14:32 31,0 C 30,0 C 66 % 0 lf 1012,3 hPa 0,0 l/m 2 min 0 min 833 W/m 18,8 km/h (3 Bft)
05.07.2015 14:34 31,0 C 30,0 C 68 % 0 lf 1012,3 hPa 0,0 l/m 2 min 0 min 826 W/m 14,6 km/h (3 Bft)
05.07.2015 14:36 31,1 C 30,0 C 65 % 0 lf 1012,3 hPa 0,0 l/m 2 min 0 min 776 W/m 23,0 km/h (4 Bft)
05.07.2015 14:38 31,2 C 30,6 C 66 % 0 lf 1012,3 hPa 0,0 l/m 2 min 0 min 840 W/m 10,5 km/h (2 Bft)
05.07.2015 14:40 31,4 C 30,6 C 68 % 0 lf 1012,3 hPa 0,0 l/m 2 min 0 min 870 W/m 10,5 km/h (2 Bft)
05.07.2015 14:42 31,6 C 31,1 C 67 % 0 lf 1012,3 hPa 0,0 l/m 2 min 0 min 772 W/m 10,5 km/h (2 Bft)
05.07.2015 14:44 31,6 C 31,1 C 66 % 0 lf 1012,3 hPa 0,0 l/m 2 min 0 min 926 W/m 10,5 km/h (2 Bft)
05.07.2015 14:46 31,4 C 31,1 C 66 % 0 lf 1012,4 hPa 0,0 l/m 2 min 0 min 632 W/m 12,6 km/h (3 Bft)
05.07.2015 14:48 31,3 C 30,6 C 67 % 0 lf 1012,4 hPa 0,0 l/m 2 min 0 min 429 W/m 14,6 km/h (3 Bft)
05.07.2015 14:50 31,2 C 30,6 C 66 % 0 lf 1012,4 hPa 0,0 l/m 2 min 0 min 445 W/m 16,7 km/h (3 Bft)
05.07.2015 14:52 31,0 C 30,6 C 65 % 0 lf 1012,5 hPa 0,0 l/m 2 min 0 min 436 W/m 12,6 km/h (3 Bft)
05.07.2015 14:54 30,9 C 30,6 C 66 % 0 lf 1012,5 hPa 0,0 l/m 0 min 0 min 347 W/m 12,6 km/h (3 Bft)
05.07.2015 14:56 30,8 C 30,0 C 67 % 0 lf 1012,6 hPa 0,0 l/m 0 min 0 min 295 W/m 14,6 km/h (3 Bft)
05.07.2015 14:58 30,6 C 29,4 C 67 % 0 lf 1012,4 hPa 0,0 l/m 0 min 0 min 266 W/m 14,6 km/h (3 Bft)
05.07.2015 15:02 30,4 C 28,9 C 70 % 0 lf 1012,4 hPa 0,0 l/m 0 min 0 min 223 W/m 8,4 km/h (2 Bft)
05.07.2015 15:04 30,2 C 28,9 C 68 % 0 lf 1012,4 hPa 0,0 l/m 0 min 0 min 162 W/m 12,6 km/h (3 Bft)
05.07.2015 15:06 30,1 C 28,3 C 69 % 0 lf 1012,3 hPa 0,0 l/m 0 min 0 min 120 W/m 12,6 km/h (3 Bft)
05.07.2015 15:08 29,9 C 27,8 C 68 % 0 lf 1012,3 hPa 0,0 l/m 0 min 0 min 108 W/m 12,6 km/h (3 Bft)
05.07.2015 15:10 29,8 C 27,8 C 70 % 0 lf 1012,1 hPa 0,0 l/m 0 min 0 min 115 W/m 8,4 km/h (2 Bft)
05.07.2015 15:12 29,7 C 27,8 C 69 % 0 lf 1012,1 hPa 0,0 l/m 0 min 0 min 123 W/m 8,4 km/h (2 Bft)
05.07.2015 15:14 29,5 C 27,8 C 70 % 0 lf 1012,1 hPa 0,0 l/m 0 min 2 min 132 W/m 12,6 km/h (3 Bft)
05.07.2015 15:16 29,4 C 27,8 C 70 % 1 lf 1012,0 hPa 0,0 l/m 0 min 2 min 168 W/m 6,3 km/h (2 Bft)
05.07.2015 15:18 29,4 C 27,8 C 69 % 0 lf 1011,9 hPa 0,0 l/m 0 min 2 min 203 W/m 8,4 km/h (2 Bft)
05.07.2015 15:22 29,5 C 27,8 C 70 % 0 lf 1011,9 hPa 0,0 l/m 0 min 0 min 245 W/m 6,3 km/h (2 Bft)
05.07.2015 15:24 29,6 C 28,3 C 70 % 0 lf 1011,8 hPa 0,0 l/m 0 min 0 min 345 W/m 6,3 km/h (2 Bft)
05.07.2015 15:28 29,8 C 28,9 C 70 % 0 lf 1011,8 hPa 0,0 l/m 2 min 0 min 402 W/m 4,2 km/h (1 Bft)
05.07.2015 15:30 29,9 C 29,4 C 72 % 0 lf 1011,8 hPa 0,0 l/m 2 min 0 min 407 W/m 6,3 km/h (2 Bft)
05.07.2015 15:34 30,1 C 30,0 C 67 % 0 lf 1011,7 hPa 0,0 l/m 2 min 0 min 429 W/m 6,3 km/h (2 Bft)
05.07.2015 15:37 30,4 C 30,0 C 67 % 0 lf 1011,5 hPa 0,0 l/m 2 min 0 min 506 W/m 4,2 km/h (1 Bft)
05.07.2015 15:38 30,5 C 30,0 C 66 % 0 lf 1011,6 hPa 0,0 l/m 1 min 0 min 726 W/m 6,3 km/h (2 Bft)
05.07.2015 15:39 30,5 C 30,6 C 66 % 0 lf 1011,6 hPa 0,0 l/m 1 min 0 min 726 W/m 4,2 km/h (1 Bft)
05.07.2015 15:42 30,8 C 30,6 C 66 % 0 lf 1011,6 hPa 0,0 l/m 2 min 0 min 857 W/m 4,2 km/h (1 Bft)
05.07.2015 15:43 31,0 C 31,1 C 67 % 0 lf 1011,6 hPa 0,0 l/m 1 min 0 min 909 W/m 6,3 km/h (2 Bft)
05.07.2015 15:44 31,1 C 31,1 C 67 % 0 lf 1011,6 hPa 0,0 l/m 1 min 0 min 895 W/m 4,2 km/h (1 Bft)
05.07.2015 15:45 31,3 C 31,1 C 67 % 0 lf 1011,6 hPa 0,0 l/m 1 min 0 min 863 W/m 10,5 km/h (2 Bft)
05.07.2015 15:46 31,5 C 31,1 C 66 % 0 lf 1011,5 hPa 0,0 l/m 1 min 0 min 833 W/m 8,4 km/h (2 Bft)
05.07.2015 15:47 31,6 C 31,1 C 64 % 0 lf 1011,5 hPa 0,0 l/m 1 min 0 min 833 W/m 6,3 km/h (2 Bft)
05.07.2015 15:48 31,6 C 31,1 C 65 % 0 lf 1011,5 hPa 0,0 l/m 1 min 0 min 512 W/m 10,5 km/h (2 Bft)
05.07.2015 15:50 31,4 C 30,6 C 64 % 0 lf 1011,5 hPa 0,0 l/m 2 min 0 min 436 W/m 8,4 km/h (2 Bft)
05.07.2015 15:52 31,4 C 30,6 C 66 % 0 lf 1011,4 hPa 0,0 l/m 2 min 0 min 648 W/m 10,5 km/h (2 Bft)
05.07.2015 15:54 31,6 C 30,6 C 67 % 0 lf 1011,4 hPa 0,0 l/m 2 min 0 min 763 W/m 8,4 km/h (2 Bft)
05.07.2015 15:56 31,7 C 30,6 C 64 % 0 lf 1011,5 hPa 0,0 l/m 2 min 0 min 684 W/m 14,6 km/h (3 Bft)
05.07.2015 15:58 31,7 C 30,6 C 66 % 0 lf 1011,5 hPa 0,0 l/m 2 min 0 min 525 W/m 14,6 km/h (3 Bft)
05.07.2015 16:00 31,8 C 31,1 C 66 % 0 lf 1011,5 hPa 0,0 l/m 2 min 0 min 542 W/m 10,5 km/h (2 Bft)
05.07.2015 16:04 31,8 C 32,2 C 65 % 0 lf 1011,6 hPa 0,0 l/m 2 min 0 min 595 W/m 12,6 km/h (3 Bft)
05.07.2015 16:06 31,8 C 32,8 C 64 % 0 lf 1011,6 hPa 0,0 l/m 2 min 0 min 664 W/m 12,6 km/h (3 Bft)
05.07.2015 16:08 31,8 C 33,3 C 66 % 0 lf 1011,6 hPa 0,0 l/m 2 min 0 min 582 W/m 16,7 km/h (3 Bft)
05.07.2015 16:10 31,8 C 32,8 C 63 % 0 lf 1011,6 hPa 0,0 l/m 2 min 0 min 510 W/m 14,6 km/h (3 Bft)
05.07.2015 16:12 31,8 C 32,2 C 64 % 0 lf 1011,7 hPa 0,0 l/m 2 min 0 min 479 W/m 20,9 km/h (4 Bft)
05.07.2015 16:14 31,7 C 32,2 C 64 % 0 lf 1011,8 hPa 0,0 l/m 2 min 0 min 556 W/m 20,9 km/h (4 Bft)
05.07.2015 16:16 31,6 C 32,2 C 64 % 0 lf 1011,8 hPa 0,0 l/m 2 min 0 min 655 W/m 12,6 km/h (3 Bft)
05.07.2015 16:18 31,7 C 33,3 C 65 % 0 lf 1011,8 hPa 0,0 l/m 2 min 0 min 655 W/m 20,9 km/h (4 Bft)
05.07.2015 16:20 31,7 C 33,3 C 65 % 0 lf 1011,8 hPa 0,0 l/m 2 min 0 min 628 W/m 18,8 km/h (3 Bft)
05.07.2015 16:22 31,8 C 33,3 C 64 % 0 lf 1011,7 hPa 0,0 l/m 2 min 0 min 619 W/m 16,7 km/h (3 Bft)
05.07.2015 16:24 31,9 C 33,3 C 65 % 0 lf 1011,6 hPa 0,0 l/m 2 min 0 min 595 W/m 16,7 km/h (3 Bft)
05.07.2015 16:26 31,9 C 32,2 C 64 % 0 lf 1011,5 hPa 0,0 l/m 2 min 0 min 597 W/m 16,7 km/h (3 Bft)
05.07.2015 16:28 31,9 C 31,7 C 63 % 0 lf 1011,5 hPa 0,0 l/m 2 min 0 min 605 W/m 16,7 km/h (3 Bft)
05.07.2015 16:30 31,8 C 31,1 C 63 % 0 lf 1011,5 hPa 0,0 l/m 2 min 0 min 551 W/m 25,1 km/h (4 Bft)
05.07.2015 16:32 31,7 C 30,6 C 63 % 0 lf 1011,5 hPa 0,0 l/m 0 min 0 min 338 W/m 29,3 km/h (5 Bft)
05.07.2015 16:34 31,4 C 30,0 C 61 % 0 lf 1011,5 hPa 0,0 l/m 0 min 0 min 250 W/m 29,3 km/h (5 Bft)
05.07.2015 16:36 31,1 C 29,4 C 61 % 0 lf 1011,5 hPa 0,0 l/m 0 min 0 min 309 W/m 37,7 km/h (5 Bft)
05.07.2015 16:38 30,8 C 29,4 C 62 % 0 lf 1011,6 hPa 0,0 l/m 2 min 0 min 357 W/m 29,3 km/h (5 Bft)
05.07.2015 16:40 30,6 C 28,9 C 63 % 0 lf 1011,7 hPa 0,0 l/m 0 min 0 min 330 W/m 33,5 km/h (5 Bft)
05.07.2015 16:42 30,3 C 28,9 C 64 % 0 lf 1011,7 hPa 0,0 l/m 0 min 0 min 337 W/m 37,7 km/h (5 Bft)
05.07.2015 16:44 30,3 C 29,4 C 64 % 0 lf 1011,8 hPa 0,0 l/m 2 min 0 min 401 W/m 23,0 km/h (4 Bft)
05.07.2015 16:46 30,3 C 29,4 C 65 % 0 lf 1011,7 hPa 0,0 l/m 2 min 0 min 565 W/m 25,1 km/h (4 Bft)
05.07.2015 16:48 30,4 C 30,0 C 65 % 0 lf 1011,8 hPa 0,0 l/m 2 min 0 min 561 W/m 23,0 km/h (4 Bft)
05.07.2015 16:50 30,6 C 30,0 C 64 % 0 lf 1011,9 hPa 0,0 l/m 2 min 0 min 710 W/m 35,6 km/h (5 Bft)
05.07.2015 16:52 30,6 C 30,0 C 62 % 0 lf 1012,0 hPa 0,0 l/m 2 min 0 min 692 W/m 29,3 km/h (5 Bft)
05.07.2015 16:54 30,5 C 30,0 C 62 % 0 lf 1012,1 hPa 0,0 l/m 2 min 0 min 669 W/m 41,8 km/h (6 Bft)
05.07.2015 16:56 30,5 C 29,4 C 62 % 0 lf 1012,1 hPa 0,0 l/m 2 min 0 min 631 W/m 20,9 km/h (4 Bft)
05.07.2015 16:58 30,4 C 29,4 C 62 % 0 lf 1012,0 hPa 0,0 l/m 2 min 0 min 627 W/m 37,7 km/h (5 Bft)
05.07.2015 17:00 30,3 C 28,9 C 61 % 0 lf 1012,2 hPa 0,0 l/m 2 min 0 min 614 W/m 31,4 km/h (5 Bft)
05.07.2015 17:02 30,2 C 28,9 C 62 % 0 lf 1012,0 hPa 0,0 l/m 2 min 0 min 591 W/m 35,6 km/h (5 Bft)
05.07.2015 17:04 29,9 C 28,3 C 63 % 0 lf 1012,1 hPa 0,0 l/m 2 min 0 min 482 W/m 37,7 km/h (5 Bft)
05.07.2015 17:06 29,7 C 27,8 C 63 % 0 lf 1012,1 hPa 0,0 l/m 0 min 0 min 210 W/m 35,6 km/h (5 Bft)
05.07.2015 17:08 29,4 C 27,2 C 64 % 0 lf 1012,1 hPa 0,0 l/m 0 min 0 min 87 W/m 31,4 km/h (5 Bft)
05.07.2015 17:10 29,1 C 27,2 C 65 % 0 lf 1012,2 hPa 0,0 l/m 0 min 0 min 70 W/m 27,2 km/h (4 Bft)
05.07.2015 17:12 28,8 C 26,7 C 65 % 0 lf 1012,3 hPa 0,0 l/m 0 min 0 min 76 W/m 50,2 km/h (7 Bft)
05.07.2015 17:14 28,2 C 26,1 C 64 % 0 lf 1012,5 hPa 0,0 l/m 0 min 0 min 103 W/m 46,0 km/h (6 Bft)
05.07.2015 17:16 27,6 C 25,0 C 64 % 0 lf 1012,4 hPa 0,0 l/m 0 min 0 min 109 W/m 46,0 km/h (6 Bft)
05.07.2015 17:18 26,9 C 25,0 C 65 % 0 lf 1012,7 hPa 0,0 l/m 0 min 0 min 109 W/m 50,2 km/h (7 Bft)
05.07.2015 17:22 25,8 C 23,9 C 66 % 0 lf 1013,1 hPa 0,0 l/m 0 min 0 min 93 W/m 50,2 km/h (7 Bft)
05.07.2015 17:24 25,3 C 23,3 C 66 % 0 lf 1013,3 hPa 0,0 l/m 0 min 0 min 71 W/m 41,8 km/h (6 Bft)
05.07.2015 17:26 24,9 C 23,3 C 68 % 0 lf 1013,4 hPa 0,0 l/m 0 min 0 min 59 W/m 25,1 km/h (4 Bft)
05.07.2015 17:28 24,6 C 22,8 C 68 % 0 lf 1013,5 hPa 0,0 l/m 0 min 0 min 51 W/m 37,7 km/h (5 Bft)
05.07.2015 17:30 24,3 C 22,8 C 68 % 0 lf 1013,5 hPa 0,0 l/m 0 min 0 min 45 W/m 33,5 km/h (5 Bft)
05.07.2015 17:32 24,1 C 22,2 C 69 % 0 lf 1013,4 hPa 0,0 l/m 0 min 0 min 41 W/m 41,8 km/h (6 Bft)
05.07.2015 17:33 23,9 C 22,2 C 69 % 0 lf 1013,5 hPa 0,0 l/m 0 min 0 min 40 W/m 33,5 km/h (5 Bft)
05.07.2015 17:34 23,9 C 22,2 C 69 % 3 lf 1013,5 hPa 0,0 l/m 0 min 0 min 41 W/m 39,7 km/h (6 Bft)
05.07.2015 17:35 23,8 C 22,2 C 69 % 0 lf 1013,5 hPa 0,0 l/m 0 min 0 min 44 W/m 35,6 km/h (5 Bft)
05.07.2015 17:36 23,6 C 22,2 C 69 % 0 lf 1013,5 hPa 0,0 l/m 0 min 0 min 47 W/m 41,8 km/h (6 Bft)
05.07.2015 17:37 23,5 C 21,7 C 69 % 0 lf 1013,4 hPa 0,0 l/m 0 min 0 min 47 W/m 48,1 km/h (6 Bft)
05.07.2015 17:38 23,4 C 21,7 C 69 % 0 lf 1013,5 hPa 0,0 l/m 0 min 0 min 60 W/m 29,3 km/h (5 Bft)
05.07.2015 17:39 23,3 C 21,7 C 69 % 0 lf 1013,5 hPa 0,0 l/m 0 min 0 min 70 W/m 43,9 km/h (6 Bft)
05.07.2015 17:40 23,2 C 21,7 C 70 % 1 lf 1013,5 hPa 0,0 l/m 0 min 0 min 110 W/m 41,8 km/h (6 Bft)
05.07.2015 17:41 23,1 C 21,7 C 70 % 0 lf 1013,7 hPa 0,0 l/m 0 min 0 min 193 W/m 35,6 km/h (5 Bft)
05.07.2015 17:42 23,1 C 21,7 C 71 % 0 lf 1013,7 hPa 0,0 l/m 0 min 0 min 253 W/m 27,2 km/h (4 Bft)
05.07.2015 17:43 23,1 C 22,2 C 71 % 0 lf 1013,9 hPa 0,0 l/m 1 min 0 min 297 W/m 31,4 km/h (5 Bft)
05.07.2015 17:44 23,1 C 22,2 C 70 % 0 lf 1013,9 hPa 0,0 l/m 1 min 0 min 350 W/m 23,0 km/h (4 Bft)
05.07.2015 17:45 23,1 C 22,2 C 70 % 0 lf 1013,7 hPa 0,0 l/m 1 min 0 min 350 W/m 20,9 km/h (4 Bft)
05.07.2015 17:46 23,2 C 22,8 C 70 % 1 lf 1013,4 hPa 0,0 l/m 1 min 0 min 332 W/m 23,0 km/h (4 Bft)
05.07.2015 17:47 23,2 C 22,8 C 70 % 0 lf 1013,3 hPa 0,0 l/m 1 min 0 min 652 W/m 25,1 km/h (4 Bft)
05.07.2015 17:48 23,2 C 23,3 C 70 % 0 lf 1013,4 hPa 0,0 l/m 1 min 0 min 668 W/m 27,2 km/h (4 Bft)
05.07.2015 17:49 23,3 C 23,3 C 69 % 0 lf 1013,5 hPa 0,0 l/m 1 min 0 min 661 W/m 25,1 km/h (4 Bft)
05.07.2015 17:50 23,5 C 23,3 C 68 % 0 lf 1013,7 hPa 0,0 l/m 1 min 0 min 647 W/m 29,3 km/h (5 Bft)
05.07.2015 17:51 23,6 C 23,3 C 68 % 0 lf 1013,8 hPa 0,0 l/m 1 min 0 min 636 W/m 29,3 km/h (5 Bft)
05.07.2015 17:52 23,7 C 23,3 C 68 % 0 lf 1013,7 hPa 0,0 l/m 1 min 0 min 628 W/m 31,4 km/h (5 Bft)
05.07.2015 17:53 23,8 C 23,3 C 67 % 0 lf 1013,7 hPa 0,0 l/m 1 min 1 min 610 W/m 33,5 km/h (5 Bft)
05.07.2015 17:54 23,9 C 23,3 C 67 % 0 lf 1013,7 hPa 0,0 l/m 1 min 1 min 591 W/m 37,7 km/h (5 Bft)
05.07.2015 17:55 23,9 C 23,3 C 65 % 2 lf 1013,7 hPa 0,0 l/m 1 min 1 min 575 W/m 35,6 km/h (5 Bft)
05.07.2015 17:56 23,9 C 23,3 C 67 % 0 lf 1013,8 hPa 0,0 l/m 1 min 0 min 575 W/m 35,6 km/h (5 Bft)
05.07.2015 17:57 23,9 C 23,3 C 64 % 0 lf 1013,9 hPa 0,0 l/m 1 min 0 min 564 W/m 33,5 km/h (5 Bft)
05.07.2015 17:58 23,9 C 23,3 C 65 % 0 lf 1013,9 hPa 0,0 l/m 1 min 0 min 533 W/m 31,4 km/h (5 Bft)
05.07.2015 18:00 23,8 C 22,8 C 65 % 0 lf 1014,0 hPa 0,0 l/m 2 min 0 min 515 W/m 20,9 km/h (4 Bft)
05.07.2015 18:02 23,7 C 22,8 C 66 % 0 lf 1014,2 hPa 0,0 l/m 2 min 0 min 498 W/m 35,6 km/h (5 Bft)
05.07.2015 18:05 23,6 C 22,8 C 65 % 0 lf 1014,6 hPa 0,0 l/m 2 min 0 min 448 W/m 37,7 km/h (5 Bft)
05.07.2015 18:07 23,5 C 22,2 C 65 % 0 lf 1014,7 hPa 0,0 l/m 2 min 0 min 446 W/m 37,7 km/h (5 Bft)
05.07.2015 18:10 23,4 C 22,2 C 65 % 0 lf 1014,9 hPa 0,0 l/m 2 min 0 min 434 W/m 37,7 km/h (5 Bft)
05.07.2015 18:12 23,3 C 22,2 C 66 % 0 lf 1015,0 hPa 0,0 l/m 2 min 0 min 445 W/m 37,7 km/h (5 Bft)
05.07.2015 18:14 23,3 C 22,2 C 66 % 0 lf 1015,0 hPa 0,0 l/m 2 min 0 min 423 W/m 27,2 km/h (4 Bft)
05.07.2015 18:16 23,3 C 22,2 C 66 % 0 lf 1015,2 hPa 0,0 l/m 2 min 0 min 400 W/m 29,3 km/h (5 Bft)
05.07.2015 18:18 23,4 C 22,2 C 66 % 0 lf 1015,4 hPa 0,0 l/m 2 min 0 min 330 W/m 43,9 km/h (6 Bft)
05.07.2015 18:24 23,1 C 22,2 C 66 % 0 lf 1015,2 hPa 0,0 l/m 0 min 0 min 203 W/m 35,6 km/h (5 Bft)
05.07.2015 18:28 22,8 C 22,2 C 66 % 0 lf 1015,2 hPa 0,0 l/m 0 min 0 min 153 W/m 37,7 km/h (5 Bft)
05.07.2015 18:30 22,7 C 21,7 C 64 % 0 lf 1015,1 hPa 0,0 l/m 0 min 0 min 126 W/m 33,5 km/h (5 Bft)
05.07.2015 18:34 22,2 C 21,1 C 65 % 0 lf 1014,8 hPa 0,0 l/m 0 min 0 min 120 W/m 41,8 km/h (6 Bft)
05.07.2015 18:38 21,9 C 21,1 C 68 % 0 lf 1014,0 hPa 0,0 l/m 0 min 0 min 127 W/m 25,1 km/h (4 Bft)
05.07.2015 18:40 21,8 C 21,1 C 68 % 0 lf 1014,4 hPa 0,0 l/m 0 min 0 min 130 W/m 25,1 km/h (4 Bft)
05.07.2015 18:44 21,7 C 20,6 C 68 % 0 lf 1014,4 hPa 0,0 l/m 0 min 0 min 111 W/m 31,4 km/h (5 Bft)
05.07.2015 18:46 21,7 C 20,6 C 69 % 0 lf 1014,3 hPa 0,0 l/m 0 min 0 min 104 W/m 20,9 km/h (4 Bft)
05.07.2015 18:48 21,7 C 21,1 C 70 % 0 lf 1014,2 hPa 0,0 l/m 0 min 0 min 111 W/m 16,7 km/h (3 Bft)
05.07.2015 18:50 21,7 C 21,1 C 69 % 0 lf 1014,1 hPa 0,0 l/m 0 min 0 min 145 W/m 25,1 km/h (4 Bft)
05.07.2015 18:52 21,6 C 21,1 C 70 % 0 lf 1014,0 hPa 0,0 l/m 0 min 0 min 169 W/m 12,6 km/h (3 Bft)
05.07.2015 18:54 21,6 C 21,1 C 70 % 0 lf 1014,1 hPa 0,0 l/m 0 min 0 min 150 W/m 16,7 km/h (3 Bft)
05.07.2015 18:56 21,7 C 21,1 C 71 % 0 lf 1014,2 hPa 0,0 l/m 0 min 0 min 139 W/m 23,0 km/h (4 Bft)
05.07.2015 18:58 21,7 C 21,1 C 71 % 0 lf 1014,5 hPa 0,0 l/m 0 min 0 min 140 W/m 20,9 km/h (4 Bft)
05.07.2015 19:00 21,7 C 21,1 C 71 % 0 lf 1014,7 hPa 0,0 l/m 0 min 0 min 143 W/m 23,0 km/h (4 Bft)
05.07.2015 19:02 21,7 C 21,1 C 70 % 0 lf 1014,9 hPa 0,0 l/m 0 min 0 min 141 W/m 23,0 km/h (4 Bft)
05.07.2015 19:04 21,7 C 21,1 C 70 % 0 lf 1014,9 hPa 0,0 l/m 0 min 0 min 130 W/m 20,9 km/h (4 Bft)
05.07.2015 19:06 21,7 C 21,1 C 69 % 0 lf 1014,8 hPa 0,0 l/m 0 min 0 min 123 W/m 23,0 km/h (4 Bft)
05.07.2015 19:08 21,7 C 21,1 C 69 % 0 lf 1014,8 hPa 0,0 l/m 0 min 0 min 129 W/m 27,2 km/h (4 Bft)
05.07.2015 19:10 21,6 C 20,6 C 69 % 0 lf 1014,8 hPa 0,0 l/m 0 min 0 min 119 W/m 33,5 km/h (5 Bft)
05.07.2015 19:12 21,5 C 20,6 C 68 % 0 lf 1014,9 hPa 0,0 l/m 0 min 0 min 94 W/m 25,1 km/h (4 Bft)
05.07.2015 19:14 21,4 C 20,6 C 69 % 0 lf 1014,9 hPa 0,0 l/m 0 min 0 min 90 W/m 25,1 km/h (4 Bft)
05.07.2015 19:16 21,4 C 20,6 C 69 % 0 lf 1014,9 hPa 0,0 l/m 0 min 0 min 93 W/m 20,9 km/h (4 Bft)
05.07.2015 19:18 21,4 C 20,6 C 70 % 0 lf 1014,9 hPa 0,0 l/m 0 min 0 min 94 W/m 10,5 km/h (2 Bft)
05.07.2015 19:20 21,3 C 20,6 C 69 % 0 lf 1014,9 hPa 0,0 l/m 0 min 0 min 87 W/m 18,8 km/h (3 Bft)
05.07.2015 19:22 21,4 C 20,6 C 70 % 0 lf 1014,9 hPa 0,0 l/m 0 min 0 min 71 W/m 12,6 km/h (3 Bft)
05.07.2015 19:24 21,3 C 20,6 C 69 % 0 lf 1014,8 hPa 0,0 l/m 0 min 0 min 56 W/m 20,9 km/h (4 Bft)
05.07.2015 19:26 21,3 C 20,0 C 70 % 0 lf 1014,8 hPa 0,0 l/m 0 min 0 min 54 W/m 12,6 km/h (3 Bft)
05.07.2015 19:28 21,2 C 20,0 C 70 % 12 lf 1014,9 hPa 0,0 l/m 0 min 0 min 61 W/m 16,7 km/h (3 Bft)
05.07.2015 19:30 21,2 C 19,4 C 70 % 12 lf 1015,0 hPa 0,0 l/m 0 min 2 min 61 W/m 12,6 km/h (3 Bft)
05.07.2015 19:32 21,2 C 19,4 C 72 % 3 lf 1015,1 hPa 0,0 l/m 0 min 2 min 51 W/m 8,4 km/h (2 Bft)
05.07.2015 19:34 21,2 C 20,0 C 72 % 0 lf 1015,1 hPa 0,0 l/m 0 min 0 min 46 W/m 6,3 km/h (2 Bft)
05.07.2015 19:36 21,2 C 20,0 C 72 % 3 lf 1015,1 hPa 0,0 l/m 0 min 0 min 44 W/m 10,5 km/h (2 Bft)
05.07.2015 19:38 21,2 C 20,0 C 72 % 10 lf 1015,0 hPa 0,0 l/m 0 min 2 min 48 W/m 8,4 km/h (2 Bft)
05.07.2015 19:40 21,1 C 18,9 C 72 % 11 lf 1015,0 hPa 0,0 l/m 0 min 2 min 54 W/m 8,4 km/h (2 Bft)
05.07.2015 19:42 21,1 C 18,9 C 74 % 0 lf 1015,0 hPa 0,0 l/m 0 min 2 min 56 W/m 8,4 km/h (2 Bft)
05.07.2015 19:44 21,0 C 18,9 C 74 % 0 lf 1015,0 hPa 0,0 l/m 0 min 0 min 54 W/m 10,5 km/h (2 Bft)
05.07.2015 19:46 20,9 C 19,4 C 74 % 0 lf 1015,0 hPa 0,0 l/m 0 min 0 min 75 W/m 6,3 km/h (2 Bft)
05.07.2015 19:48 20,9 C 19,4 C 74 % 4 lf 1015,0 hPa 0,0 l/m 0 min 2 min 104 W/m 12,6 km/h (3 Bft)
05.07.2015 19:50 20,9 C 18,9 C 73 % 11 lf 1014,9 hPa 0,0 l/m 0 min 2 min 101 W/m 8,4 km/h (2 Bft)
05.07.2015 19:52 20,9 C 18,3 C 73 % 15 lf 1014,9 hPa 0,0 l/m 0 min 2 min 97 W/m 12,6 km/h (3 Bft)
05.07.2015 19:54 20,9 C 18,3 C 74 % 15 lf 1015,0 hPa 0,0 l/m 0 min 2 min 84 W/m 10,5 km/h (2 Bft)
05.07.2015 19:56 20,8 C 18,3 C 74 % 15 lf 1014,9 hPa 0,0 l/m 0 min 2 min 93 W/m 14,6 km/h (3 Bft)
05.07.2015 19:58 20,8 C 18,3 C 76 % 13 lf 1014,9 hPa 0,0 l/m 2 min 2 min 129 W/m 8,4 km/h (2 Bft)
05.07.2015 20:00 20,9 C 18,9 C 76 % 3 lf 1015,0 hPa 0,0 l/m 2 min 2 min 144 W/m 8,4 km/h (2 Bft)
05.07.2015 20:02 20,9 C 18,9 C 75 % 0 lf 1015,0 hPa 0,0 l/m 2 min 0 min 123 W/m 14,6 km/h (3 Bft)
05.07.2015 20:04 21,0 C 19,4 C 75 % 0 lf 1014,9 hPa 0,0 l/m 0 min 0 min 85 W/m 12,6 km/h (3 Bft)
05.07.2015 20:06 21,0 C 20,0 C 74 % 0 lf 1015,0 hPa 0,0 l/m 0 min 0 min 65 W/m 14,6 km/h (3 Bft)
05.07.2015 20:08 20,9 C 20,0 C 73 % 0 lf 1014,9 hPa 0,0 l/m 0 min 0 min 51 W/m 12,6 km/h (3 Bft)
05.07.2015 20:10 20,9 C 20,0 C 73 % 0 lf 1014,9 hPa 0,0 l/m 0 min 0 min 48 W/m 4,2 km/h (1 Bft)
05.07.2015 20:12 20,9 C 20,0 C 73 % 0 lf 1014,9 hPa 0,0 l/m 0 min 0 min 72 W/m 8,4 km/h (2 Bft)
05.07.2015 20:14 20,8 C 20,0 C 74 % 0 lf 1014,9 hPa 0,0 l/m 0 min 0 min 93 W/m 8,4 km/h (2 Bft)
05.07.2015 20:16 20,9 C 20,0 C 74 % 0 lf 1014,9 hPa 0,0 l/m 0 min 0 min 90 W/m 6,3 km/h (2 Bft)
05.07.2015 20:18 20,9 C 20,0 C 74 % 0 lf 1014,9 hPa 0,0 l/m 2 min 0 min 131 W/m 8,4 km/h (2 Bft)
05.07.2015 20:20 21,0 C 20,6 C 74 % 0 lf 1015,0 hPa 0,0 l/m 2 min 0 min 123 W/m 10,5 km/h (2 Bft)
05.07.2015 20:22 21,0 C 20,6 C 74 % 0 lf 1014,9 hPa 0,0 l/m 2 min 0 min 102 W/m 12,6 km/h (3 Bft)
05.07.2015 20:24 21,1 C 20,6 C 74 % 0 lf 1015,1 hPa 0,0 l/m 0 min 0 min 84 W/m 12,6 km/h (3 Bft)
05.07.2015 20:26 21,1 C 20,0 C 74 % 0 lf 1015,1 hPa 0,0 l/m 0 min 0 min 78 W/m 14,6 km/h (3 Bft)
05.07.2015 20:28 21,0 C 20,0 C 74 % 0 lf 1015,1 hPa 0,0 l/m 0 min 0 min 61 W/m 10,5 km/h (2 Bft)
05.07.2015 20:30 21,0 C 20,0 C 74 % 0 lf 1015,3 hPa 0,0 l/m 0 min 0 min 48 W/m 10,5 km/h (2 Bft)
05.07.2015 20:32 20,9 C 20,0 C 75 % 0 lf 1015,4 hPa 0,0 l/m 0 min 0 min 39 W/m 6,3 km/h (2 Bft)
05.07.2015 20:34 20,9 C 20,0 C 74 % 0 lf 1015,5 hPa 0,0 l/m 0 min 0 min 35 W/m 8,4 km/h (2 Bft)
05.07.2015 20:36 20,9 C 20,0 C 73 % 0 lf 1015,4 hPa 0,0 l/m 0 min 0 min 29 W/m 10,5 km/h (2 Bft)
05.07.2015 20:38 20,8 C 19,4 C 73 % 0 lf 1015,4 hPa 0,0 l/m 0 min 0 min 25 W/m 8,4 km/h (2 Bft)
05.07.2015 20:40 20,8 C 19,4 C 74 % 0 lf 1015,3 hPa 0,0 l/m 0 min 0 min 23 W/m 6,3 km/h (2 Bft)
05.07.2015 20:42 20,7 C 19,4 C 74 % 0 lf 1015,2 hPa 0,0 l/m 0 min 0 min 26 W/m 6,3 km/h (2 Bft)
05.07.2015 20:44 20,7 C 19,4 C 75 % 0 lf 1015,4 hPa 0,0 l/m 0 min 2 min 33 W/m 4,2 km/h (1 Bft)
05.07.2015 20:46 20,6 C 18,9 C 75 % 8 lf 1015,5 hPa 0,0 l/m 0 min 2 min 39 W/m 6,3 km/h (2 Bft)
05.07.2015 20:48 20,6 C 18,3 C 76 % 4 lf 1015,6 hPa 0,0 l/m 0 min 2 min 33 W/m 8,4 km/h (2 Bft)
05.07.2015 20:50 20,6 C 18,3 C 76 % 0 lf 1015,5 hPa 0,0 l/m 0 min 2 min 32 W/m 6,3 km/h (2 Bft)
05.07.2015 20:52 20,6 C 18,3 C 76 % 0 lf 1015,7 hPa 0,0 l/m 0 min 0 min 30 W/m 6,3 km/h (2 Bft)
05.07.2015 20:54 20,5 C 18,9 C 76 % 0 lf 1015,9 hPa 0,0 l/m 0 min 0 min 29 W/m 8,4 km/h (2 Bft)
05.07.2015 20:56 20,4 C 18,9 C 76 % 0 lf 1016,1 hPa 0,0 l/m 0 min 0 min 25 W/m 8,4 km/h (2 Bft)
05.07.2015 20:58 20,4 C 18,9 C 77 % 0 lf 1016,2 hPa 0,0 l/m 0 min 0 min 25 W/m 6,3 km/h (2 Bft)
05.07.2015 21:00 20,4 C 18,9 C 77 % 0 lf 1016,2 hPa 0,0 l/m 0 min 0 min 23 W/m 6,3 km/h (2 Bft)
05.07.2015 21:02 20,3 C 18,9 C 77 % 0 lf 1016,1 hPa 0,0 l/m 0 min 0 min 16 W/m 6,3 km/h (2 Bft)
05.07.2015 21:04 20,3 C 18,9 C 76 % 0 lf 1016,0 hPa 0,0 l/m 0 min 0 min 13 W/m 8,4 km/h (2 Bft)
05.07.2015 21:06 20,3 C 19,4 C 76 % 0 lf 1015,4 hPa 0,0 l/m 0 min 0 min 12 W/m 10,5 km/h (2 Bft)
05.07.2015 21:08 20,3 C 19,4 C 75 % 0 lf 1015,3 hPa 0,0 l/m 0 min 0 min 16 W/m 8,4 km/h (2 Bft)
05.07.2015 21:10 20,3 C 18,9 C 76 % 15 lf 1015,7 hPa 0,0 l/m 0 min 2 min 14 W/m 6,3 km/h (2 Bft)
05.07.2015 21:12 20,3 C 17,2 C 77 % 15 lf 1015,7 hPa 0,0 l/m 0 min 2 min 13 W/m 6,3 km/h (2 Bft)
05.07.2015 21:14 20,2 C 16,7 C 78 % 15 lf 1015,4 hPa 0,2 l/m 0 min 2 min 14 W/m 12,6 km/h (3 Bft)
05.07.2015 21:16 20,1 C 16,1 C 78 % 15 lf 1015,3 hPa 0,0 l/m 0 min 2 min 14 W/m 8,4 km/h (2 Bft)
05.07.2015 21:18 19,9 C 16,1 C 79 % 15 lf 1015,4 hPa 0,0 l/m 0 min 2 min 14 W/m 8,4 km/h (2 Bft)
05.07.2015 21:20 19,8 C 16,1 C 80 % 15 lf 1015,4 hPa 0,0 l/m 0 min 2 min 14 W/m 8,4 km/h (2 Bft)
05.07.2015 21:24 19,6 C 16,1 C 83 % 15 lf 1015,4 hPa 0,0 l/m 0 min 0 min 13 W/m 4,2 km/h (1 Bft)
05.07.2015 21:26 19,4 C 16,1 C 84 % 15 lf 1015,5 hPa 0,0 l/m 0 min 0 min 12 W/m 8,4 km/h (2 Bft)
05.07.2015 21:28 19,4 C 16,1 C 84 % 15 lf 1015,6 hPa 0,0 l/m 0 min 0 min 11 W/m 4,2 km/h (1 Bft)
05.07.2015 21:30 19,3 C 16,7 C 84 % 15 lf 1015,6 hPa 0,0 l/m 0 min 0 min 10 W/m 6,3 km/h (2 Bft)
05.07.2015 21:32 19,3 C 16,7 C 85 % 15 lf 1015,7 hPa 0,0 l/m 0 min 0 min 9 W/m 4,2 km/h (1 Bft)
05.07.2015 21:34 19,2 C 16,1 C 86 % 15 lf 1015,7 hPa 0,0 l/m 0 min 0 min 9 W/m 4,2 km/h (1 Bft)
05.07.2015 21:36 19,2 C 16,7 C 86 % 15 lf 1015,8 hPa 0,0 l/m 0 min 0 min 9 W/m 4,2 km/h (1 Bft)
05.07.2015 21:38 19,1 C 16,7 C 86 % 15 lf 1015,8 hPa 0,0 l/m 0 min 0 min 7 W/m 4,2 km/h (1 Bft)
05.07.2015 21:40 19,1 C 16,7 C 86 % 15 lf 1015,9 hPa 0,0 l/m 0 min 0 min 7 W/m 6,3 km/h (2 Bft)
05.07.2015 21:42 19,0 C 16,1 C 86 % 15 lf 1016,0 hPa 0,0 l/m 0 min 0 min 6 W/m 4,2 km/h (1 Bft)
05.07.2015 21:44 18,9 C 16,1 C 86 % 15 lf 1016,0 hPa 0,0 l/m 0 min 0 min 5 W/m 6,3 km/h (2 Bft)
05.07.2015 21:46 18,9 C 16,1 C 86 % 15 lf 1015,9 hPa 0,0 l/m 0 min 0 min 5 W/m 4,2 km/h (1 Bft)
05.07.2015 21:48 18,8 C 16,1 C 86 % 15 lf 1016,0 hPa 0,0 l/m 0 min 0 min 5 W/m 6,3 km/h (2 Bft)
05.07.2015 21:50 18,8 C 16,1 C 87 % 15 lf 1016,1 hPa 0,0 l/m 0 min 0 min 5 W/m 6,3 km/h (2 Bft)
05.07.2015 21:52 18,7 C 16,1 C 87 % 15 lf 1016,0 hPa 0,0 l/m 0 min 0 min 5 W/m 4,2 km/h (1 Bft)
05.07.2015 21:54 18,8 C 16,1 C 87 % 15 lf 1016,0 hPa 0,0 l/m 0 min 0 min 5 W/m 2,1 km/h (1 Bft)
05.07.2015 21:56 18,8 C 16,1 C 87 % 15 lf 1016,0 hPa 0,0 l/m 0 min 0 min 5 W/m 2,1 km/h (1 Bft)
05.07.2015 21:58 18,7 C 16,1 C 88 % 15 lf 1016,1 hPa 0,0 l/m 0 min 0 min 5 W/m 4,2 km/h (1 Bft)
05.07.2015 22:00 18,7 C 16,1 C 88 % 15 lf 1016,2 hPa 0,0 l/m 0 min 0 min 0 W/m 4,2 km/h (1 Bft)
05.07.2015 22:02 18,7 C 16,1 C 88 % 15 lf 1016,3 hPa 0,0 l/m 0 min 0 min 0 W/m 4,2 km/h (1 Bft)
05.07.2015 22:04 18,6 C 16,1 C 88 % 15 lf 1016,2 hPa 0,0 l/m 0 min 0 min 0 W/m 2,1 km/h (1 Bft)
05.07.2015 22:06 18,6 C 16,1 C 88 % 15 lf 1016,2 hPa 0,0 l/m 0 min 0 min 0 W/m 2,1 km/h (1 Bft)
05.07.2015 22:08 18,6 C 16,1 C 88 % 15 lf 1016,2 hPa 0,0 l/m 0 min 0 min 0 W/m 2,1 km/h (1 Bft)
05.07.2015 22:10 18,6 C 16,1 C 88 % 15 lf 1016,2 hPa 0,0 l/m 0 min 0 min 0 W/m 6,3 km/h (2 Bft)
05.07.2015 22:12 18,6 C 16,1 C 88 % 15 lf 1016,2 hPa 0,0 l/m 0 min 0 min 0 W/m 6,3 km/h (2 Bft)
05.07.2015 22:14 18,5 C 16,1 C 88 % 15 lf 1016,4 hPa 0,0 l/m 0 min 0 min 0 W/m 4,2 km/h (1 Bft)
05.07.2015 22:16 18,5 C 16,1 C 88 % 15 lf 1016,5 hPa 0,0 l/m 0 min 0 min 0 W/m 4,2 km/h (1 Bft)
05.07.2015 22:18 18,5 C 16,1 C 88 % 15 lf 1016,6 hPa 0,0 l/m 0 min 0 min 0 W/m 4,2 km/h (1 Bft)
05.07.2015 22:20 18,5 C 16,1 C 88 % 14 lf 1016,6 hPa 0,0 l/m 0 min 0 min 0 W/m 4,2 km/h (1 Bft)
05.07.2015 22:22 18,4 C 16,1 C 88 % 12 lf 1016,6 hPa 0,0 l/m 0 min 0 min 0 W/m 4,2 km/h (1 Bft)
05.07.2015 22:24 18,4 C 16,1 C 89 % 11 lf 1016,6 hPa 0,0 l/m 0 min 0 min 0 W/m 4,2 km/h (1 Bft)
05.07.2015 22:26 18,4 C 16,1 C 88 % 8 lf 1016,6 hPa 0,0 l/m 0 min 0 min 0 W/m 4,2 km/h (1 Bft)
05.07.2015 22:28 18,4 C 16,1 C 88 % 4 lf 1016,6 hPa 0,0 l/m 0 min 0 min 0 W/m 6,3 km/h (2 Bft)
05.07.2015 22:30 18,4 C 16,1 C 88 % 3 lf 1016,6 hPa 0,0 l/m 0 min 0 min 0 W/m 6,3 km/h (2 Bft)
05.07.2015 22:32 18,4 C 15,6 C 88 % 2 lf 1016,7 hPa 0,0 l/m 0 min 0 min 0 W/m 6,3 km/h (2 Bft)
05.07.2015 22:34 18,4 C 15,6 C 88 % 1 lf 1016,7 hPa 0,0 l/m 0 min 0 min 0 W/m 4,2 km/h (1 Bft)
05.07.2015 22:36 18,4 C 15,6 C 88 % 0 lf 1016,8 hPa 0,0 l/m 0 min 0 min 0 W/m 6,3 km/h (2 Bft)
05.07.2015 22:38 18,4 C 16,1 C 88 % 0 lf 1016,8 hPa 0,0 l/m 0 min 0 min 0 W/m 6,3 km/h (2 Bft)
05.07.2015 22:40 18,4 C 16,1 C 88 % 0 lf 1016,9 hPa 0,0 l/m 0 min 0 min 0 W/m 6,3 km/h (2 Bft)
05.07.2015 22:42 18,3 C 15,6 C 88 % 0 lf 1016,9 hPa 0,0 l/m 0 min 0 min 0 W/m 8,4 km/h (2 Bft)
05.07.2015 22:44 18,3 C 15,6 C 88 % 0 lf 1016,9 hPa 0,0 l/m 0 min 0 min 0 W/m 6,3 km/h (2 Bft)
05.07.2015 22:46 18,3 C 16,1 C 88 % 0 lf 1017,0 hPa 0,0 l/m 0 min 0 min 0 W/m 6,3 km/h (2 Bft)
05.07.2015 22:48 18,3 C 16,1 C 88 % 0 lf 1017,0 hPa 0,0 l/m 0 min 0 min 0 W/m 6,3 km/h (2 Bft)
05.07.2015 22:50 18,3 C 16,1 C 88 % 0 lf 1017,1 hPa 0,0 l/m 0 min 0 min 0 W/m 6,3 km/h (2 Bft)
05.07.2015 22:52 18,3 C 16,1 C 88 % 0 lf 1017,0 hPa 0,0 l/m 0 min 0 min 0 W/m 4,2 km/h (1 Bft)
05.07.2015 22:54 18,3 C 16,1 C 88 % 0 lf 1017,1 hPa 0,0 l/m 0 min 0 min 0 W/m 6,3 km/h (2 Bft)
05.07.2015 22:56 18,4 C 16,1 C 88 % 0 lf 1017,0 hPa 0,0 l/m 0 min 0 min 0 W/m 8,4 km/h (2 Bft)
05.07.2015 22:58 18,4 C 16,1 C 88 % 0 lf 1017,1 hPa 0,0 l/m 0 min 0 min 0 W/m 8,4 km/h (2 Bft)
05.07.2015 23:00 18,4 C 16,1 C 88 % 0 lf 1017,1 hPa 0,0 l/m 0 min 0 min 0 W/m 6,3 km/h (2 Bft)
05.07.2015 23:02 18,4 C 16,1 C 87 % 0 lf 1017,2 hPa 0,0 l/m 0 min 0 min 0 W/m 6,3 km/h (2 Bft)
05.07.2015 23:04 18,4 C 16,1 C 87 % 0 lf 1017,2 hPa 0,0 l/m 0 min 0 min 0 W/m 6,3 km/h (2 Bft)
05.07.2015 23:06 18,4 C 16,1 C 87 % 0 lf 1017,2 hPa 0,0 l/m 0 min 0 min 0 W/m 4,2 km/h (1 Bft)
05.07.2015 23:08 18,4 C 16,1 C 87 % 0 lf 1017,1 hPa 0,0 l/m 0 min 0 min 0 W/m 4,2 km/h (1 Bft)
05.07.2015 23:10 18,4 C 16,1 C 87 % 0 lf 1017,2 hPa 0,0 l/m 0 min 0 min 0 W/m 6,3 km/h (2 Bft)
05.07.2015 23:12 18,4 C 16,1 C 87 % 0 lf 1017,2 hPa 0,0 l/m 0 min 0 min 0 W/m 4,2 km/h (1 Bft)
05.07.2015 23:14 18,3 C 16,1 C 88 % 0 lf 1017,2 hPa 0,0 l/m 0 min 0 min 0 W/m 4,2 km/h (1 Bft)
05.07.2015 23:16 18,3 C 16,1 C 88 % 0 lf 1017,3 hPa 0,0 l/m 0 min 0 min 0 W/m 6,3 km/h (2 Bft)
05.07.2015 23:18 18,3 C 16,1 C 88 % 0 lf 1017,3 hPa 0,0 l/m 0 min 0 min 0 W/m 6,3 km/h (2 Bft)
05.07.2015 23:20 18,2 C 16,1 C 88 % 0 lf 1017,4 hPa 0,0 l/m 0 min 0 min 0 W/m 6,3 km/h (2 Bft)
05.07.2015 23:22 18,2 C 16,1 C 88 % 0 lf 1017,4 hPa 0,0 l/m 0 min 0 min 0 W/m 8,4 km/h (2 Bft)
05.07.2015 23:24 18,1 C 16,1 C 88 % 0 lf 1017,3 hPa 0,0 l/m 0 min 0 min 0 W/m 6,3 km/h (2 Bft)
05.07.2015 23:26 18,1 C 16,1 C 89 % 0 lf 1017,5 hPa 0,0 l/m 0 min 0 min 0 W/m 6,3 km/h (2 Bft)
05.07.2015 23:28 18,1 C 16,1 C 89 % 0 lf 1017,5 hPa 0,0 l/m 0 min 0 min 0 W/m 8,4 km/h (2 Bft)
05.07.2015 23:30 18,1 C 16,1 C 89 % 0 lf 1017,5 hPa 0,0 l/m 0 min 0 min 0 W/m 8,4 km/h (2 Bft)
05.07.2015 23:32 18,0 C 16,1 C 89 % 0 lf 1017,5 hPa 0,0 l/m 0 min 0 min 0 W/m 8,4 km/h (2 Bft)
05.07.2015 23:34 18,0 C 16,1 C 89 % 0 lf 1017,6 hPa 0,0 l/m 0 min 0 min 0 W/m 8,4 km/h (2 Bft)
05.07.2015 23:36 18,0 C 16,7 C 90 % 0 lf 1017,6 hPa 0,0 l/m 0 min 0 min 0 W/m 6,3 km/h (2 Bft)
05.07.2015 23:38 18,1 C 16,7 C 90 % 0 lf 1017,6 hPa 0,0 l/m 0 min 0 min 0 W/m 4,2 km/h (1 Bft)
05.07.2015 23:40 18,1 C 16,7 C 90 % 0 lf 1017,7 hPa 0,0 l/m 0 min 0 min 0 W/m 8,4 km/h (2 Bft)
05.07.2015 23:42 18,1 C 16,7 C 90 % 0 lf 1017,7 hPa 0,0 l/m 0 min 0 min 0 W/m 6,3 km/h (2 Bft)
05.07.2015 23:44 18,1 C 16,7 C 90 % 0 lf 1017,7 hPa 0,0 l/m 0 min 0 min 0 W/m 10,5 km/h (2 Bft)
05.07.2015 23:46 18,1 C 16,7 C 90 % 0 lf 1017,7 hPa 0,0 l/m 0 min 0 min 0 W/m 8,4 km/h (2 Bft)
05.07.2015 23:48 18,2 C 17,2 C 90 % 0 lf 1017,7 hPa 0,0 l/m 0 min 0 min 0 W/m 8,4 km/h (2 Bft)
05.07.2015 23:50 18,2 C 17,2 C 90 % 0 lf 1017,7 hPa 0,0 l/m 0 min 0 min 0 W/m 4,2 km/h (1 Bft)
05.07.2015 23:52 18,3 C 17,2 C 90 % 0 lf 1017,7 hPa 0,0 l/m 0 min 0 min 0 W/m 10,5 km/h (2 Bft)
05.07.2015 23:54 18,3 C 17,2 C 90 % 0 lf 1017,7 hPa 0,0 l/m 0 min 0 min 0 W/m 10,5 km/h (2 Bft)
05.07.2015 23:56 18,3 C 17,2 C 89 % 0 lf 1017,7 hPa 0,0 l/m 0 min 0 min 0 W/m 8,4 km/h (2 Bft)
05.07.2015 23:58 18,3 C 17,2 C 89 % 0 lf 1017,7 hPa 0,0 l/m 0 min 0 min 0 W/m 6,3 km/h (2 Bft)
_ Min-Zeit 23:32 22:32 00:00 00:00 15:52 - - - - 04:30
Minimum _ 18,0 C 15,6 C 60 % 0 lf 1011,4 hPa - - - - 2,1 km/h (1 Bft)
_ Max-Zeit 16:10 16:08 09:06 03:52 02:18 08:24 07:14 03:34 12:16 08:22
Maximum _ 31,9 C 33,3 C 96 % 15 lf 1019,6 hPa 2,6 l/m 2 min 2 min 931 W/m 56,5 km/h
O (7 Bft)
Durchschnitt _ 23,0 C 21,5 C 79 % 5 lf 1016,1 hPa #10,0 l/m #6:36 h #2:30 h 311 W/m 12,0 km/h (2 Bft)
© 2015 W. Hausmann